<?xml version="1.0" encoding="UTF-8" standalone="no" ?>
<gpx xmlns="http://www.topografix.com/GPX/1/1" xmlns:xsi="http://www.w3.org/2001/XMLSchema-instance" xsi:schemaLocation="http://www.topografix.com/GPX/1/1 http://www.topografix.com/GPX/1/1/gpx.xsd" version="1.1" creator="VisuGPX - https://www.visugpx.com">
  <metadata>
    <name>Le Petit Croisse Baulet (Aravis)</name>
    <desc><![CDATA[Départ du Plan de la Giettaz.
Photos et commentaires sur : http://www.photosrandos.fr]]></desc>
  </metadata>
  <trk>
    <name><![CDATA[8 mars 2018 à 09:36:26]]></name>
    <cmt><![CDATA[8 mars 2018 à 09:36:26]]></cmt>
    <trkseg>
      <trkpt lat="45.87968" lon="6.52492">
        <ele>1222</ele>
        <time>2018-03-08T08:39:44Z</time>
      </trkpt>
      <trkpt lat="45.87963" lon="6.52492">
        <ele>1222</ele>
        <time>2018-03-08T08:39:54Z</time>
      </trkpt>
      <trkpt lat="45.87956" lon="6.52494">
        <ele>1222</ele>
        <time>2018-03-08T08:39:58Z</time>
      </trkpt>
      <trkpt lat="45.8795" lon="6.52505">
        <ele>1222</ele>
        <time>2018-03-08T08:40:05Z</time>
      </trkpt>
      <trkpt lat="45.87955" lon="6.52517">
        <ele>1222</ele>
        <time>2018-03-08T08:40:13Z</time>
      </trkpt>
      <trkpt lat="45.87959" lon="6.52545">
        <ele>1222</ele>
        <time>2018-03-08T08:40:30Z</time>
      </trkpt>
      <trkpt lat="45.87959" lon="6.52559">
        <ele>1222</ele>
        <time>2018-03-08T08:40:37Z</time>
      </trkpt>
      <trkpt lat="45.87963" lon="6.52572">
        <ele>1222</ele>
        <time>2018-03-08T08:40:46Z</time>
      </trkpt>
      <trkpt lat="45.8797" lon="6.52583">
        <ele>1222</ele>
        <time>2018-03-08T08:40:54Z</time>
      </trkpt>
      <trkpt lat="45.8797" lon="6.52596">
        <ele>1223</ele>
        <time>2018-03-08T08:41:04Z</time>
      </trkpt>
      <trkpt lat="45.87976" lon="6.52621">
        <ele>1223</ele>
        <time>2018-03-08T08:41:23Z</time>
      </trkpt>
      <trkpt lat="45.87981" lon="6.52633">
        <ele>1224</ele>
        <time>2018-03-08T08:41:33Z</time>
      </trkpt>
      <trkpt lat="45.87996" lon="6.52647">
        <ele>1225</ele>
        <time>2018-03-08T08:41:50Z</time>
      </trkpt>
      <trkpt lat="45.88004" lon="6.5265">
        <ele>1225</ele>
        <time>2018-03-08T08:42:05Z</time>
      </trkpt>
      <trkpt lat="45.88008" lon="6.52656">
        <ele>1226</ele>
        <time>2018-03-08T08:42:10Z</time>
      </trkpt>
      <trkpt lat="45.88005" lon="6.52661">
        <ele>1226</ele>
        <time>2018-03-08T08:42:13Z</time>
      </trkpt>
      <trkpt lat="45.88006" lon="6.5267">
        <ele>1226</ele>
        <time>2018-03-08T08:42:20Z</time>
      </trkpt>
      <trkpt lat="45.88002" lon="6.52674">
        <ele>1226</ele>
        <time>2018-03-08T08:42:24Z</time>
      </trkpt>
      <trkpt lat="45.87994" lon="6.52693">
        <ele>1227</ele>
        <time>2018-03-08T08:42:36Z</time>
      </trkpt>
      <trkpt lat="45.87991" lon="6.52699">
        <ele>1227</ele>
        <time>2018-03-08T08:42:40Z</time>
      </trkpt>
      <trkpt lat="45.88001" lon="6.52692">
        <ele>1228</ele>
        <time>2018-03-08T08:43:31Z</time>
      </trkpt>
      <trkpt lat="45.88" lon="6.52706">
        <ele>1229</ele>
        <time>2018-03-08T08:43:55Z</time>
      </trkpt>
      <trkpt lat="45.87985" lon="6.52729">
        <ele>1231</ele>
        <time>2018-03-08T08:44:19Z</time>
      </trkpt>
      <trkpt lat="45.87992" lon="6.52744">
        <ele>1233</ele>
        <time>2018-03-08T08:44:45Z</time>
      </trkpt>
      <trkpt lat="45.88" lon="6.52749">
        <ele>1236</ele>
        <time>2018-03-08T08:44:55Z</time>
      </trkpt>
      <trkpt lat="45.87998" lon="6.52761">
        <ele>1238</ele>
        <time>2018-03-08T08:45:12Z</time>
      </trkpt>
      <trkpt lat="45.87998" lon="6.52774">
        <ele>1240</ele>
        <time>2018-03-08T08:45:24Z</time>
      </trkpt>
      <trkpt lat="45.87994" lon="6.5279">
        <ele>1243</ele>
        <time>2018-03-08T08:45:46Z</time>
      </trkpt>
      <trkpt lat="45.88005" lon="6.52786">
        <ele>1244</ele>
        <time>2018-03-08T08:46:07Z</time>
      </trkpt>
      <trkpt lat="45.88007" lon="6.52794">
        <ele>1246</ele>
        <time>2018-03-08T08:46:39Z</time>
      </trkpt>
      <trkpt lat="45.88004" lon="6.52806">
        <ele>1249</ele>
        <time>2018-03-08T08:46:50Z</time>
      </trkpt>
      <trkpt lat="45.88003" lon="6.52821">
        <ele>1250</ele>
        <time>2018-03-08T08:47:03Z</time>
      </trkpt>
      <trkpt lat="45.88" lon="6.52826">
        <ele>1250</ele>
        <time>2018-03-08T08:47:08Z</time>
      </trkpt>
      <trkpt lat="45.87994" lon="6.5286">
        <ele>1253</ele>
        <time>2018-03-08T08:47:41Z</time>
      </trkpt>
      <trkpt lat="45.87982" lon="6.5288">
        <ele>1255</ele>
        <time>2018-03-08T08:48:04Z</time>
      </trkpt>
      <trkpt lat="45.87978" lon="6.52892">
        <ele>1256</ele>
        <time>2018-03-08T08:48:21Z</time>
      </trkpt>
      <trkpt lat="45.87962" lon="6.52904">
        <ele>1258</ele>
        <time>2018-03-08T08:48:40Z</time>
      </trkpt>
      <trkpt lat="45.87958" lon="6.5291">
        <ele>1259</ele>
        <time>2018-03-08T08:49:34Z</time>
      </trkpt>
      <trkpt lat="45.87954" lon="6.52915">
        <ele>1259</ele>
        <time>2018-03-08T08:49:39Z</time>
      </trkpt>
      <trkpt lat="45.87946" lon="6.52924">
        <ele>1260</ele>
        <time>2018-03-08T08:49:46Z</time>
      </trkpt>
      <trkpt lat="45.87944" lon="6.5293">
        <ele>1260</ele>
        <time>2018-03-08T08:49:51Z</time>
      </trkpt>
      <trkpt lat="45.87943" lon="6.52944">
        <ele>1261</ele>
        <time>2018-03-08T08:50:04Z</time>
      </trkpt>
      <trkpt lat="45.87938" lon="6.52955">
        <ele>1262</ele>
        <time>2018-03-08T08:50:13Z</time>
      </trkpt>
      <trkpt lat="45.87937" lon="6.52962">
        <ele>1263</ele>
        <time>2018-03-08T08:50:18Z</time>
      </trkpt>
      <trkpt lat="45.87939" lon="6.52968">
        <ele>1264</ele>
        <time>2018-03-08T08:50:24Z</time>
      </trkpt>
      <trkpt lat="45.87936" lon="6.52975">
        <ele>1264</ele>
        <time>2018-03-08T08:50:29Z</time>
      </trkpt>
      <trkpt lat="45.87936" lon="6.52988">
        <ele>1265</ele>
        <time>2018-03-08T08:50:39Z</time>
      </trkpt>
      <trkpt lat="45.87939" lon="6.53002">
        <ele>1266</ele>
        <time>2018-03-08T08:50:55Z</time>
      </trkpt>
      <trkpt lat="45.87936" lon="6.53019">
        <ele>1269</ele>
        <time>2018-03-08T08:51:19Z</time>
      </trkpt>
      <trkpt lat="45.87947" lon="6.53057">
        <ele>1272</ele>
        <time>2018-03-08T08:51:51Z</time>
      </trkpt>
      <trkpt lat="45.87947" lon="6.5307">
        <ele>1273</ele>
        <time>2018-03-08T08:52:04Z</time>
      </trkpt>
      <trkpt lat="45.87952" lon="6.53082">
        <ele>1275</ele>
        <time>2018-03-08T08:52:14Z</time>
      </trkpt>
      <trkpt lat="45.87959" lon="6.53089">
        <ele>1275</ele>
        <time>2018-03-08T08:52:23Z</time>
      </trkpt>
      <trkpt lat="45.87977" lon="6.53121">
        <ele>1278</ele>
        <time>2018-03-08T08:52:55Z</time>
      </trkpt>
      <trkpt lat="45.87994" lon="6.53152">
        <ele>1279</ele>
        <time>2018-03-08T08:53:26Z</time>
      </trkpt>
      <trkpt lat="45.87989" lon="6.53178">
        <ele>1279</ele>
        <time>2018-03-08T08:53:45Z</time>
      </trkpt>
      <trkpt lat="45.87983" lon="6.53187">
        <ele>1279</ele>
        <time>2018-03-08T08:53:52Z</time>
      </trkpt>
      <trkpt lat="45.87958" lon="6.53209">
        <ele>1280</ele>
        <time>2018-03-08T08:54:22Z</time>
      </trkpt>
      <trkpt lat="45.87953" lon="6.53235">
        <ele>1281</ele>
        <time>2018-03-08T08:54:45Z</time>
      </trkpt>
      <trkpt lat="45.87951" lon="6.53257">
        <ele>1283</ele>
        <time>2018-03-08T08:55:12Z</time>
      </trkpt>
      <trkpt lat="45.87955" lon="6.53264">
        <ele>1283</ele>
        <time>2018-03-08T08:55:22Z</time>
      </trkpt>
      <trkpt lat="45.87964" lon="6.53272">
        <ele>1284</ele>
        <time>2018-03-08T08:55:35Z</time>
      </trkpt>
      <trkpt lat="45.87962" lon="6.53279">
        <ele>1285</ele>
        <time>2018-03-08T08:55:51Z</time>
      </trkpt>
      <trkpt lat="45.87952" lon="6.53292">
        <ele>1286</ele>
        <time>2018-03-08T08:56:36Z</time>
      </trkpt>
      <trkpt lat="45.87947" lon="6.53307">
        <ele>1288</ele>
        <time>2018-03-08T08:56:50Z</time>
      </trkpt>
      <trkpt lat="45.87951" lon="6.53316">
        <ele>1291</ele>
        <time>2018-03-08T08:57:03Z</time>
      </trkpt>
      <trkpt lat="45.8796" lon="6.53318">
        <ele>1293</ele>
        <time>2018-03-08T08:57:19Z</time>
      </trkpt>
      <trkpt lat="45.87958" lon="6.53325">
        <ele>1294</ele>
        <time>2018-03-08T08:57:25Z</time>
      </trkpt>
      <trkpt lat="45.87962" lon="6.53347">
        <ele>1297</ele>
        <time>2018-03-08T08:57:55Z</time>
      </trkpt>
      <trkpt lat="45.87968" lon="6.53347">
        <ele>1299</ele>
        <time>2018-03-08T08:58:16Z</time>
      </trkpt>
      <trkpt lat="45.87973" lon="6.53347">
        <ele>1300</ele>
        <time>2018-03-08T08:58:18Z</time>
      </trkpt>
      <trkpt lat="45.87976" lon="6.53349">
        <ele>1302</ele>
        <time>2018-03-08T08:58:35Z</time>
      </trkpt>
      <trkpt lat="45.87969" lon="6.53354">
        <ele>1303</ele>
        <time>2018-03-08T08:58:46Z</time>
      </trkpt>
      <trkpt lat="45.87968" lon="6.5336">
        <ele>1304</ele>
        <time>2018-03-08T08:58:53Z</time>
      </trkpt>
      <trkpt lat="45.87971" lon="6.53365">
        <ele>1305</ele>
        <time>2018-03-08T08:59:00Z</time>
      </trkpt>
      <trkpt lat="45.87987" lon="6.5337">
        <ele>1308</ele>
        <time>2018-03-08T08:59:26Z</time>
      </trkpt>
      <trkpt lat="45.87983" lon="6.53376">
        <ele>1311</ele>
        <time>2018-03-08T08:59:44Z</time>
      </trkpt>
      <trkpt lat="45.87986" lon="6.53387">
        <ele>1313</ele>
        <time>2018-03-08T09:00:11Z</time>
      </trkpt>
      <trkpt lat="45.87988" lon="6.53392">
        <ele>1315</ele>
        <time>2018-03-08T09:00:23Z</time>
      </trkpt>
      <trkpt lat="45.87994" lon="6.53392">
        <ele>1316</ele>
        <time>2018-03-08T09:00:33Z</time>
      </trkpt>
      <trkpt lat="45.8801" lon="6.53384">
        <ele>1320</ele>
        <time>2018-03-08T09:01:32Z</time>
      </trkpt>
      <trkpt lat="45.8802" lon="6.53386">
        <ele>1320</ele>
        <time>2018-03-08T09:01:40Z</time>
      </trkpt>
      <trkpt lat="45.88033" lon="6.53389">
        <ele>1325</ele>
        <time>2018-03-08T09:02:09Z</time>
      </trkpt>
      <trkpt lat="45.88051" lon="6.53396">
        <ele>1329</ele>
        <time>2018-03-08T09:02:37Z</time>
      </trkpt>
      <trkpt lat="45.88062" lon="6.53407">
        <ele>1333</ele>
        <time>2018-03-08T09:03:09Z</time>
      </trkpt>
      <trkpt lat="45.88071" lon="6.53412">
        <ele>1334</ele>
        <time>2018-03-08T09:03:22Z</time>
      </trkpt>
      <trkpt lat="45.88085" lon="6.53415">
        <ele>1341</ele>
        <time>2018-03-08T09:04:28Z</time>
      </trkpt>
      <trkpt lat="45.88096" lon="6.5342">
        <ele>1346</ele>
        <time>2018-03-08T09:04:45Z</time>
      </trkpt>
      <trkpt lat="45.88104" lon="6.53428">
        <ele>1349</ele>
        <time>2018-03-08T09:05:06Z</time>
      </trkpt>
      <trkpt lat="45.88119" lon="6.53436">
        <ele>1353</ele>
        <time>2018-03-08T09:05:31Z</time>
      </trkpt>
      <trkpt lat="45.88128" lon="6.53449">
        <ele>1358</ele>
        <time>2018-03-08T09:06:02Z</time>
      </trkpt>
      <trkpt lat="45.88129" lon="6.53463">
        <ele>1362</ele>
        <time>2018-03-08T09:06:46Z</time>
      </trkpt>
      <trkpt lat="45.88128" lon="6.53479">
        <ele>1368</ele>
        <time>2018-03-08T09:07:09Z</time>
      </trkpt>
      <trkpt lat="45.88133" lon="6.53489">
        <ele>1369</ele>
        <time>2018-03-08T09:07:24Z</time>
      </trkpt>
      <trkpt lat="45.88124" lon="6.53498">
        <ele>1372</ele>
        <time>2018-03-08T09:07:36Z</time>
      </trkpt>
      <trkpt lat="45.88143" lon="6.53515">
        <ele>1377</ele>
        <time>2018-03-08T09:08:22Z</time>
      </trkpt>
      <trkpt lat="45.88149" lon="6.53525">
        <ele>1379</ele>
        <time>2018-03-08T09:08:40Z</time>
      </trkpt>
      <trkpt lat="45.88142" lon="6.53544">
        <ele>1384</ele>
        <time>2018-03-08T09:09:20Z</time>
      </trkpt>
      <trkpt lat="45.88133" lon="6.53553">
        <ele>1390</ele>
        <time>2018-03-08T09:10:03Z</time>
      </trkpt>
      <trkpt lat="45.88111" lon="6.53551">
        <ele>1403</ele>
        <time>2018-03-08T09:11:28Z</time>
      </trkpt>
      <trkpt lat="45.88092" lon="6.53556">
        <ele>1409</ele>
        <time>2018-03-08T09:12:12Z</time>
      </trkpt>
      <trkpt lat="45.88083" lon="6.53553">
        <ele>1410</ele>
        <time>2018-03-08T09:12:23Z</time>
      </trkpt>
      <trkpt lat="45.88072" lon="6.53561">
        <ele>1415</ele>
        <time>2018-03-08T09:13:01Z</time>
      </trkpt>
      <trkpt lat="45.88061" lon="6.5357">
        <ele>1421</ele>
        <time>2018-03-08T09:14:05Z</time>
      </trkpt>
      <trkpt lat="45.88052" lon="6.53573">
        <ele>1424</ele>
        <time>2018-03-08T09:14:30Z</time>
      </trkpt>
      <trkpt lat="45.88062" lon="6.53585">
        <ele>1431</ele>
        <time>2018-03-08T09:15:19Z</time>
      </trkpt>
      <trkpt lat="45.88081" lon="6.53598">
        <ele>1437</ele>
        <time>2018-03-08T09:15:56Z</time>
      </trkpt>
      <trkpt lat="45.88089" lon="6.53605">
        <ele>1439</ele>
        <time>2018-03-08T09:16:07Z</time>
      </trkpt>
      <trkpt lat="45.88095" lon="6.53615">
        <ele>1440</ele>
        <time>2018-03-08T09:16:17Z</time>
      </trkpt>
      <trkpt lat="45.88088" lon="6.53636">
        <ele>1445</ele>
        <time>2018-03-08T09:17:12Z</time>
      </trkpt>
      <trkpt lat="45.88097" lon="6.53644">
        <ele>1449</ele>
        <time>2018-03-08T09:17:35Z</time>
      </trkpt>
      <trkpt lat="45.88103" lon="6.53665">
        <ele>1454</ele>
        <time>2018-03-08T09:18:14Z</time>
      </trkpt>
      <trkpt lat="45.88106" lon="6.53677">
        <ele>1456</ele>
        <time>2018-03-08T09:18:32Z</time>
      </trkpt>
      <trkpt lat="45.88102" lon="6.53689">
        <ele>1458</ele>
        <time>2018-03-08T09:18:40Z</time>
      </trkpt>
      <trkpt lat="45.88107" lon="6.53701">
        <ele>1460</ele>
        <time>2018-03-08T09:18:56Z</time>
      </trkpt>
      <trkpt lat="45.88096" lon="6.53715">
        <ele>1468</ele>
        <time>2018-03-08T09:20:10Z</time>
      </trkpt>
      <trkpt lat="45.88083" lon="6.53715">
        <ele>1470</ele>
        <time>2018-03-08T09:20:16Z</time>
      </trkpt>
      <trkpt lat="45.88069" lon="6.53721">
        <ele>1476</ele>
        <time>2018-03-08T09:21:02Z</time>
      </trkpt>
      <trkpt lat="45.8806" lon="6.53731">
        <ele>1482</ele>
        <time>2018-03-08T09:21:43Z</time>
      </trkpt>
      <trkpt lat="45.88067" lon="6.53745">
        <ele>1484</ele>
        <time>2018-03-08T09:22:08Z</time>
      </trkpt>
      <trkpt lat="45.88071" lon="6.53757">
        <ele>1488</ele>
        <time>2018-03-08T09:22:24Z</time>
      </trkpt>
      <trkpt lat="45.88077" lon="6.53765">
        <ele>1489</ele>
        <time>2018-03-08T09:22:41Z</time>
      </trkpt>
      <trkpt lat="45.88071" lon="6.5377">
        <ele>1490</ele>
        <time>2018-03-08T09:22:55Z</time>
      </trkpt>
      <trkpt lat="45.88064" lon="6.5377">
        <ele>1491</ele>
        <time>2018-03-08T09:23:10Z</time>
      </trkpt>
      <trkpt lat="45.88059" lon="6.53779">
        <ele>1493</ele>
        <time>2018-03-08T09:23:30Z</time>
      </trkpt>
      <trkpt lat="45.88051" lon="6.53786">
        <ele>1495</ele>
        <time>2018-03-08T09:23:46Z</time>
      </trkpt>
      <trkpt lat="45.88047" lon="6.53804">
        <ele>1499</ele>
        <time>2018-03-08T09:24:11Z</time>
      </trkpt>
      <trkpt lat="45.88049" lon="6.53816">
        <ele>1501</ele>
        <time>2018-03-08T09:24:31Z</time>
      </trkpt>
      <trkpt lat="45.88053" lon="6.5382">
        <ele>1502</ele>
        <time>2018-03-08T09:24:39Z</time>
      </trkpt>
      <trkpt lat="45.88057" lon="6.53825">
        <ele>1504</ele>
        <time>2018-03-08T09:24:55Z</time>
      </trkpt>
      <trkpt lat="45.88056" lon="6.53833">
        <ele>1506</ele>
        <time>2018-03-08T09:25:11Z</time>
      </trkpt>
      <trkpt lat="45.88055" lon="6.53842">
        <ele>1508</ele>
        <time>2018-03-08T09:25:25Z</time>
      </trkpt>
      <trkpt lat="45.88062" lon="6.53846">
        <ele>1510</ele>
        <time>2018-03-08T09:25:44Z</time>
      </trkpt>
      <trkpt lat="45.88065" lon="6.53851">
        <ele>1512</ele>
        <time>2018-03-08T09:25:53Z</time>
      </trkpt>
      <trkpt lat="45.88061" lon="6.53856">
        <ele>1512</ele>
        <time>2018-03-08T09:25:58Z</time>
      </trkpt>
      <trkpt lat="45.88063" lon="6.53864">
        <ele>1514</ele>
        <time>2018-03-08T09:26:16Z</time>
      </trkpt>
      <trkpt lat="45.88062" lon="6.53872">
        <ele>1515</ele>
        <time>2018-03-08T09:26:26Z</time>
      </trkpt>
      <trkpt lat="45.88065" lon="6.53876">
        <ele>1516</ele>
        <time>2018-03-08T09:26:32Z</time>
      </trkpt>
      <trkpt lat="45.8806" lon="6.53886">
        <ele>1518</ele>
        <time>2018-03-08T09:26:44Z</time>
      </trkpt>
      <trkpt lat="45.88063" lon="6.53893">
        <ele>1520</ele>
        <time>2018-03-08T09:26:58Z</time>
      </trkpt>
      <trkpt lat="45.88069" lon="6.53899">
        <ele>1521</ele>
        <time>2018-03-08T09:27:09Z</time>
      </trkpt>
      <trkpt lat="45.88072" lon="6.53905">
        <ele>1521</ele>
        <time>2018-03-08T09:27:16Z</time>
      </trkpt>
      <trkpt lat="45.88077" lon="6.53907">
        <ele>1522</ele>
        <time>2018-03-08T09:27:21Z</time>
      </trkpt>
      <trkpt lat="45.88082" lon="6.53913">
        <ele>1523</ele>
        <time>2018-03-08T09:27:31Z</time>
      </trkpt>
      <trkpt lat="45.88085" lon="6.53927">
        <ele>1524</ele>
        <time>2018-03-08T09:27:41Z</time>
      </trkpt>
      <trkpt lat="45.88089" lon="6.53932">
        <ele>1525</ele>
        <time>2018-03-08T09:27:48Z</time>
      </trkpt>
      <trkpt lat="45.88091" lon="6.53941">
        <ele>1527</ele>
        <time>2018-03-08T09:28:00Z</time>
      </trkpt>
      <trkpt lat="45.88085" lon="6.53955">
        <ele>1529</ele>
        <time>2018-03-08T09:28:19Z</time>
      </trkpt>
      <trkpt lat="45.8809" lon="6.5397">
        <ele>1532</ele>
        <time>2018-03-08T09:28:38Z</time>
      </trkpt>
      <trkpt lat="45.8809" lon="6.5398">
        <ele>1534</ele>
        <time>2018-03-08T09:28:54Z</time>
      </trkpt>
      <trkpt lat="45.88094" lon="6.53987">
        <ele>1536</ele>
        <time>2018-03-08T09:29:12Z</time>
      </trkpt>
      <trkpt lat="45.88094" lon="6.53995">
        <ele>1537</ele>
        <time>2018-03-08T09:29:20Z</time>
      </trkpt>
      <trkpt lat="45.88098" lon="6.54">
        <ele>1538</ele>
        <time>2018-03-08T09:29:24Z</time>
      </trkpt>
      <trkpt lat="45.88102" lon="6.54003">
        <ele>1538</ele>
        <time>2018-03-08T09:29:27Z</time>
      </trkpt>
      <trkpt lat="45.88103" lon="6.54011">
        <ele>1539</ele>
        <time>2018-03-08T09:29:36Z</time>
      </trkpt>
      <trkpt lat="45.88101" lon="6.54021">
        <ele>1541</ele>
        <time>2018-03-08T09:29:53Z</time>
      </trkpt>
      <trkpt lat="45.88102" lon="6.54028">
        <ele>1542</ele>
        <time>2018-03-08T09:30:05Z</time>
      </trkpt>
      <trkpt lat="45.88107" lon="6.54037">
        <ele>1544</ele>
        <time>2018-03-08T09:30:54Z</time>
      </trkpt>
      <trkpt lat="45.88102" lon="6.54045">
        <ele>1545</ele>
        <time>2018-03-08T09:31:08Z</time>
      </trkpt>
      <trkpt lat="45.88105" lon="6.54051">
        <ele>1546</ele>
        <time>2018-03-08T09:31:15Z</time>
      </trkpt>
      <trkpt lat="45.88104" lon="6.54052">
        <ele>1549</ele>
        <time>2018-03-08T09:34:10Z</time>
      </trkpt>
      <trkpt lat="45.88106" lon="6.54061">
        <ele>1549</ele>
        <time>2018-03-08T09:37:40Z</time>
      </trkpt>
      <trkpt lat="45.88106" lon="6.54071">
        <ele>1553</ele>
        <time>2018-03-08T09:37:54Z</time>
      </trkpt>
      <trkpt lat="45.88116" lon="6.54084">
        <ele>1556</ele>
        <time>2018-03-08T09:38:18Z</time>
      </trkpt>
      <trkpt lat="45.88125" lon="6.54092">
        <ele>1562</ele>
        <time>2018-03-08T09:38:53Z</time>
      </trkpt>
      <trkpt lat="45.88128" lon="6.54101">
        <ele>1565</ele>
        <time>2018-03-08T09:39:10Z</time>
      </trkpt>
      <trkpt lat="45.88124" lon="6.54105">
        <ele>1566</ele>
        <time>2018-03-08T09:39:18Z</time>
      </trkpt>
      <trkpt lat="45.88115" lon="6.5411">
        <ele>1570</ele>
        <time>2018-03-08T09:39:47Z</time>
      </trkpt>
      <trkpt lat="45.88111" lon="6.54114">
        <ele>1572</ele>
        <time>2018-03-08T09:40:03Z</time>
      </trkpt>
      <trkpt lat="45.88111" lon="6.54121">
        <ele>1573</ele>
        <time>2018-03-08T09:40:21Z</time>
      </trkpt>
      <trkpt lat="45.88114" lon="6.54126">
        <ele>1576</ele>
        <time>2018-03-08T09:40:33Z</time>
      </trkpt>
      <trkpt lat="45.88116" lon="6.54135">
        <ele>1578</ele>
        <time>2018-03-08T09:40:45Z</time>
      </trkpt>
      <trkpt lat="45.88116" lon="6.54142">
        <ele>1580</ele>
        <time>2018-03-08T09:40:54Z</time>
      </trkpt>
      <trkpt lat="45.88116" lon="6.54149">
        <ele>1580</ele>
        <time>2018-03-08T09:41:00Z</time>
      </trkpt>
      <trkpt lat="45.88118" lon="6.54156">
        <ele>1581</ele>
        <time>2018-03-08T09:41:05Z</time>
      </trkpt>
      <trkpt lat="45.88121" lon="6.54162">
        <ele>1582</ele>
        <time>2018-03-08T09:41:09Z</time>
      </trkpt>
      <trkpt lat="45.88128" lon="6.54171">
        <ele>1583</ele>
        <time>2018-03-08T09:41:17Z</time>
      </trkpt>
      <trkpt lat="45.88131" lon="6.54179">
        <ele>1585</ele>
        <time>2018-03-08T09:41:34Z</time>
      </trkpt>
      <trkpt lat="45.88136" lon="6.54184">
        <ele>1591</ele>
        <time>2018-03-08T09:42:21Z</time>
      </trkpt>
      <trkpt lat="45.88135" lon="6.5419">
        <ele>1591</ele>
        <time>2018-03-08T09:42:24Z</time>
      </trkpt>
      <trkpt lat="45.88134" lon="6.54196">
        <ele>1592</ele>
        <time>2018-03-08T09:42:34Z</time>
      </trkpt>
      <trkpt lat="45.88137" lon="6.54205">
        <ele>1595</ele>
        <time>2018-03-08T09:42:49Z</time>
      </trkpt>
      <trkpt lat="45.88133" lon="6.54212">
        <ele>1596</ele>
        <time>2018-03-08T09:42:59Z</time>
      </trkpt>
      <trkpt lat="45.88136" lon="6.54224">
        <ele>1598</ele>
        <time>2018-03-08T09:43:11Z</time>
      </trkpt>
      <trkpt lat="45.88136" lon="6.54231">
        <ele>1600</ele>
        <time>2018-03-08T09:43:23Z</time>
      </trkpt>
      <trkpt lat="45.88134" lon="6.54237">
        <ele>1600</ele>
        <time>2018-03-08T09:43:28Z</time>
      </trkpt>
      <trkpt lat="45.88135" lon="6.54245">
        <ele>1600</ele>
        <time>2018-03-08T09:43:33Z</time>
      </trkpt>
      <trkpt lat="45.88134" lon="6.54252">
        <ele>1601</ele>
        <time>2018-03-08T09:43:41Z</time>
      </trkpt>
      <trkpt lat="45.88134" lon="6.54259">
        <ele>1602</ele>
        <time>2018-03-08T09:43:50Z</time>
      </trkpt>
      <trkpt lat="45.8813" lon="6.54266">
        <ele>1603</ele>
        <time>2018-03-08T09:44:03Z</time>
      </trkpt>
      <trkpt lat="45.88128" lon="6.54272">
        <ele>1605</ele>
        <time>2018-03-08T09:44:12Z</time>
      </trkpt>
      <trkpt lat="45.88122" lon="6.54284">
        <ele>1606</ele>
        <time>2018-03-08T09:44:25Z</time>
      </trkpt>
      <trkpt lat="45.88112" lon="6.54296">
        <ele>1611</ele>
        <time>2018-03-08T09:45:05Z</time>
      </trkpt>
      <trkpt lat="45.88104" lon="6.54305">
        <ele>1612</ele>
        <time>2018-03-08T09:45:16Z</time>
      </trkpt>
      <trkpt lat="45.881" lon="6.54308">
        <ele>1614</ele>
        <time>2018-03-08T09:45:23Z</time>
      </trkpt>
      <trkpt lat="45.88095" lon="6.5431">
        <ele>1614</ele>
        <time>2018-03-08T09:45:29Z</time>
      </trkpt>
      <trkpt lat="45.8808" lon="6.54303">
        <ele>1616</ele>
        <time>2018-03-08T09:46:01Z</time>
      </trkpt>
      <trkpt lat="45.88066" lon="6.54297">
        <ele>1618</ele>
        <time>2018-03-08T09:46:22Z</time>
      </trkpt>
      <trkpt lat="45.88064" lon="6.54304">
        <ele>1619</ele>
        <time>2018-03-08T09:46:56Z</time>
      </trkpt>
      <trkpt lat="45.88056" lon="6.54304">
        <ele>1623</ele>
        <time>2018-03-08T09:47:20Z</time>
      </trkpt>
      <trkpt lat="45.88051" lon="6.54306">
        <ele>1624</ele>
        <time>2018-03-08T09:47:51Z</time>
      </trkpt>
      <trkpt lat="45.88047" lon="6.54308">
        <ele>1627</ele>
        <time>2018-03-08T09:48:27Z</time>
      </trkpt>
      <trkpt lat="45.88042" lon="6.54308">
        <ele>1628</ele>
        <time>2018-03-08T09:48:39Z</time>
      </trkpt>
      <trkpt lat="45.88033" lon="6.54315">
        <ele>1630</ele>
        <time>2018-03-08T09:48:47Z</time>
      </trkpt>
      <trkpt lat="45.88028" lon="6.54317">
        <ele>1631</ele>
        <time>2018-03-08T09:48:54Z</time>
      </trkpt>
      <trkpt lat="45.88018" lon="6.54329">
        <ele>1634</ele>
        <time>2018-03-08T09:49:20Z</time>
      </trkpt>
      <trkpt lat="45.88014" lon="6.54333">
        <ele>1634</ele>
        <time>2018-03-08T09:49:25Z</time>
      </trkpt>
      <trkpt lat="45.88012" lon="6.5434">
        <ele>1634</ele>
        <time>2018-03-08T09:49:34Z</time>
      </trkpt>
      <trkpt lat="45.88012" lon="6.54346">
        <ele>1634</ele>
        <time>2018-03-08T09:49:42Z</time>
      </trkpt>
      <trkpt lat="45.8801" lon="6.54358">
        <ele>1637</ele>
        <time>2018-03-08T09:50:11Z</time>
      </trkpt>
      <trkpt lat="45.88011" lon="6.54365">
        <ele>1638</ele>
        <time>2018-03-08T09:50:28Z</time>
      </trkpt>
      <trkpt lat="45.88006" lon="6.54373">
        <ele>1639</ele>
        <time>2018-03-08T09:50:37Z</time>
      </trkpt>
      <trkpt lat="45.88001" lon="6.54373">
        <ele>1640</ele>
        <time>2018-03-08T09:50:43Z</time>
      </trkpt>
      <trkpt lat="45.87999" lon="6.54379">
        <ele>1641</ele>
        <time>2018-03-08T09:50:50Z</time>
      </trkpt>
      <trkpt lat="45.87992" lon="6.54389">
        <ele>1643</ele>
        <time>2018-03-08T09:50:59Z</time>
      </trkpt>
      <trkpt lat="45.87991" lon="6.54418">
        <ele>1649</ele>
        <time>2018-03-08T09:51:39Z</time>
      </trkpt>
      <trkpt lat="45.87986" lon="6.54431">
        <ele>1651</ele>
        <time>2018-03-08T09:51:53Z</time>
      </trkpt>
      <trkpt lat="45.87982" lon="6.54435">
        <ele>1652</ele>
        <time>2018-03-08T09:51:59Z</time>
      </trkpt>
      <trkpt lat="45.87974" lon="6.54441">
        <ele>1654</ele>
        <time>2018-03-08T09:52:15Z</time>
      </trkpt>
      <trkpt lat="45.87967" lon="6.54461">
        <ele>1656</ele>
        <time>2018-03-08T09:52:43Z</time>
      </trkpt>
      <trkpt lat="45.87975" lon="6.54463">
        <ele>1656</ele>
        <time>2018-03-08T09:52:52Z</time>
      </trkpt>
      <trkpt lat="45.87978" lon="6.54459">
        <ele>1658</ele>
        <time>2018-03-08T09:53:15Z</time>
      </trkpt>
      <trkpt lat="45.87986" lon="6.54457">
        <ele>1662</ele>
        <time>2018-03-08T09:53:34Z</time>
      </trkpt>
      <trkpt lat="45.87998" lon="6.54445">
        <ele>1666</ele>
        <time>2018-03-08T09:53:58Z</time>
      </trkpt>
      <trkpt lat="45.88005" lon="6.54442">
        <ele>1668</ele>
        <time>2018-03-08T09:54:12Z</time>
      </trkpt>
      <trkpt lat="45.8801" lon="6.54438">
        <ele>1669</ele>
        <time>2018-03-08T09:54:26Z</time>
      </trkpt>
      <trkpt lat="45.88017" lon="6.54434">
        <ele>1671</ele>
        <time>2018-03-08T09:54:55Z</time>
      </trkpt>
      <trkpt lat="45.88018" lon="6.54441">
        <ele>1672</ele>
        <time>2018-03-08T09:55:13Z</time>
      </trkpt>
      <trkpt lat="45.88022" lon="6.54446">
        <ele>1673</ele>
        <time>2018-03-08T09:55:18Z</time>
      </trkpt>
      <trkpt lat="45.88023" lon="6.54448">
        <ele>1674</ele>
        <time>2018-03-08T10:01:19Z</time>
      </trkpt>
      <trkpt lat="45.88024" lon="6.54455">
        <ele>1674</ele>
        <time>2018-03-08T10:01:25Z</time>
      </trkpt>
      <trkpt lat="45.88023" lon="6.54462">
        <ele>1677</ele>
        <time>2018-03-08T10:01:32Z</time>
      </trkpt>
      <trkpt lat="45.88028" lon="6.54466">
        <ele>1678</ele>
        <time>2018-03-08T10:01:40Z</time>
      </trkpt>
      <trkpt lat="45.88045" lon="6.54463">
        <ele>1683</ele>
        <time>2018-03-08T10:02:13Z</time>
      </trkpt>
      <trkpt lat="45.88049" lon="6.54461">
        <ele>1683</ele>
        <time>2018-03-08T10:02:21Z</time>
      </trkpt>
      <trkpt lat="45.88055" lon="6.54458">
        <ele>1685</ele>
        <time>2018-03-08T10:02:39Z</time>
      </trkpt>
      <trkpt lat="45.88062" lon="6.54456">
        <ele>1687</ele>
        <time>2018-03-08T10:02:52Z</time>
      </trkpt>
      <trkpt lat="45.88067" lon="6.54464">
        <ele>1689</ele>
        <time>2018-03-08T10:03:08Z</time>
      </trkpt>
      <trkpt lat="45.88067" lon="6.54471">
        <ele>1691</ele>
        <time>2018-03-08T10:03:23Z</time>
      </trkpt>
      <trkpt lat="45.88066" lon="6.54478">
        <ele>1692</ele>
        <time>2018-03-08T10:03:30Z</time>
      </trkpt>
      <trkpt lat="45.88063" lon="6.54484">
        <ele>1694</ele>
        <time>2018-03-08T10:03:54Z</time>
      </trkpt>
      <trkpt lat="45.88064" lon="6.54491">
        <ele>1695</ele>
        <time>2018-03-08T10:04:04Z</time>
      </trkpt>
      <trkpt lat="45.88066" lon="6.54496">
        <ele>1696</ele>
        <time>2018-03-08T10:04:07Z</time>
      </trkpt>
      <trkpt lat="45.88062" lon="6.545">
        <ele>1697</ele>
        <time>2018-03-08T10:04:15Z</time>
      </trkpt>
      <trkpt lat="45.88064" lon="6.54507">
        <ele>1698</ele>
        <time>2018-03-08T10:04:21Z</time>
      </trkpt>
      <trkpt lat="45.88069" lon="6.54507">
        <ele>1699</ele>
        <time>2018-03-08T10:04:36Z</time>
      </trkpt>
      <trkpt lat="45.88073" lon="6.54505">
        <ele>1700</ele>
        <time>2018-03-08T10:04:42Z</time>
      </trkpt>
      <trkpt lat="45.88078" lon="6.54505">
        <ele>1701</ele>
        <time>2018-03-08T10:04:50Z</time>
      </trkpt>
      <trkpt lat="45.8809" lon="6.54501">
        <ele>1705</ele>
        <time>2018-03-08T10:05:15Z</time>
      </trkpt>
      <trkpt lat="45.88107" lon="6.54497">
        <ele>1710</ele>
        <time>2018-03-08T10:05:49Z</time>
      </trkpt>
      <trkpt lat="45.881" lon="6.54517">
        <ele>1713</ele>
        <time>2018-03-08T10:06:21Z</time>
      </trkpt>
      <trkpt lat="45.88099" lon="6.54523">
        <ele>1715</ele>
        <time>2018-03-08T10:06:30Z</time>
      </trkpt>
      <trkpt lat="45.88103" lon="6.54543">
        <ele>1717</ele>
        <time>2018-03-08T10:06:56Z</time>
      </trkpt>
      <trkpt lat="45.88108" lon="6.54551">
        <ele>1719</ele>
        <time>2018-03-08T10:07:26Z</time>
      </trkpt>
      <trkpt lat="45.88112" lon="6.54558">
        <ele>1721</ele>
        <time>2018-03-08T10:07:41Z</time>
      </trkpt>
      <trkpt lat="45.88112" lon="6.54569">
        <ele>1722</ele>
        <time>2018-03-08T10:08:07Z</time>
      </trkpt>
      <trkpt lat="45.88122" lon="6.54566">
        <ele>1725</ele>
        <time>2018-03-08T10:08:31Z</time>
      </trkpt>
      <trkpt lat="45.88127" lon="6.54569">
        <ele>1727</ele>
        <time>2018-03-08T10:08:44Z</time>
      </trkpt>
      <trkpt lat="45.8813" lon="6.54576">
        <ele>1731</ele>
        <time>2018-03-08T10:09:13Z</time>
      </trkpt>
      <trkpt lat="45.88146" lon="6.54604">
        <ele>1734</ele>
        <time>2018-03-08T10:09:41Z</time>
      </trkpt>
      <trkpt lat="45.88174" lon="6.54634">
        <ele>1737</ele>
        <time>2018-03-08T10:10:12Z</time>
      </trkpt>
      <trkpt lat="45.88188" lon="6.54654">
        <ele>1740</ele>
        <time>2018-03-08T10:10:37Z</time>
      </trkpt>
      <trkpt lat="45.88196" lon="6.54671">
        <ele>1743</ele>
        <time>2018-03-08T10:10:58Z</time>
      </trkpt>
      <trkpt lat="45.88197" lon="6.54677">
        <ele>1744</ele>
        <time>2018-03-08T10:11:07Z</time>
      </trkpt>
      <trkpt lat="45.88201" lon="6.54682">
        <ele>1745</ele>
        <time>2018-03-08T10:11:16Z</time>
      </trkpt>
      <trkpt lat="45.88208" lon="6.54688">
        <ele>1746</ele>
        <time>2018-03-08T10:11:28Z</time>
      </trkpt>
      <trkpt lat="45.88212" lon="6.54695">
        <ele>1746</ele>
        <time>2018-03-08T10:11:52Z</time>
      </trkpt>
      <trkpt lat="45.88235" lon="6.54716">
        <ele>1742</ele>
        <time>2018-03-08T10:12:02Z</time>
      </trkpt>
      <trkpt lat="45.88251" lon="6.54721">
        <ele>1739</ele>
        <time>2018-03-08T10:12:08Z</time>
      </trkpt>
      <trkpt lat="45.88258" lon="6.5472">
        <ele>1737</ele>
        <time>2018-03-08T10:12:26Z</time>
      </trkpt>
      <trkpt lat="45.88263" lon="6.54724">
        <ele>1737</ele>
        <time>2018-03-08T10:12:30Z</time>
      </trkpt>
      <trkpt lat="45.88277" lon="6.54748">
        <ele>1739</ele>
        <time>2018-03-08T10:12:57Z</time>
      </trkpt>
      <trkpt lat="45.88281" lon="6.54752">
        <ele>1740</ele>
        <time>2018-03-08T10:13:03Z</time>
      </trkpt>
      <trkpt lat="45.88285" lon="6.54764">
        <ele>1743</ele>
        <time>2018-03-08T10:13:37Z</time>
      </trkpt>
      <trkpt lat="45.88298" lon="6.54785">
        <ele>1748</ele>
        <time>2018-03-08T10:14:02Z</time>
      </trkpt>
      <trkpt lat="45.88298" lon="6.54792">
        <ele>1750</ele>
        <time>2018-03-08T10:14:15Z</time>
      </trkpt>
      <trkpt lat="45.88301" lon="6.54806">
        <ele>1752</ele>
        <time>2018-03-08T10:14:34Z</time>
      </trkpt>
      <trkpt lat="45.88306" lon="6.54818">
        <ele>1755</ele>
        <time>2018-03-08T10:14:52Z</time>
      </trkpt>
      <trkpt lat="45.88307" lon="6.54824">
        <ele>1755</ele>
        <time>2018-03-08T10:15:01Z</time>
      </trkpt>
      <trkpt lat="45.88306" lon="6.54831">
        <ele>1757</ele>
        <time>2018-03-08T10:15:11Z</time>
      </trkpt>
      <trkpt lat="45.88303" lon="6.54838">
        <ele>1759</ele>
        <time>2018-03-08T10:15:24Z</time>
      </trkpt>
      <trkpt lat="45.88304" lon="6.54845">
        <ele>1760</ele>
        <time>2018-03-08T10:15:42Z</time>
      </trkpt>
      <trkpt lat="45.8832" lon="6.54876">
        <ele>1766</ele>
        <time>2018-03-08T10:16:32Z</time>
      </trkpt>
      <trkpt lat="45.88322" lon="6.54883">
        <ele>1768</ele>
        <time>2018-03-08T10:16:41Z</time>
      </trkpt>
      <trkpt lat="45.88322" lon="6.54897">
        <ele>1770</ele>
        <time>2018-03-08T10:17:01Z</time>
      </trkpt>
      <trkpt lat="45.88328" lon="6.54908">
        <ele>1772</ele>
        <time>2018-03-08T10:17:18Z</time>
      </trkpt>
      <trkpt lat="45.88328" lon="6.54915">
        <ele>1773</ele>
        <time>2018-03-08T10:17:28Z</time>
      </trkpt>
      <trkpt lat="45.8833" lon="6.54922">
        <ele>1775</ele>
        <time>2018-03-08T10:17:46Z</time>
      </trkpt>
      <trkpt lat="45.88334" lon="6.54935">
        <ele>1777</ele>
        <time>2018-03-08T10:18:02Z</time>
      </trkpt>
      <trkpt lat="45.88342" lon="6.54952">
        <ele>1780</ele>
        <time>2018-03-08T10:18:25Z</time>
      </trkpt>
      <trkpt lat="45.88344" lon="6.54959">
        <ele>1781</ele>
        <time>2018-03-08T10:18:34Z</time>
      </trkpt>
      <trkpt lat="45.88345" lon="6.54965">
        <ele>1781</ele>
        <time>2018-03-08T10:18:41Z</time>
      </trkpt>
      <trkpt lat="45.88348" lon="6.54978">
        <ele>1782</ele>
        <time>2018-03-08T10:18:58Z</time>
      </trkpt>
      <trkpt lat="45.88349" lon="6.54988">
        <ele>1784</ele>
        <time>2018-03-08T10:19:09Z</time>
      </trkpt>
      <trkpt lat="45.88351" lon="6.54994">
        <ele>1784</ele>
        <time>2018-03-08T10:19:13Z</time>
      </trkpt>
      <trkpt lat="45.88349" lon="6.55005">
        <ele>1785</ele>
        <time>2018-03-08T10:19:35Z</time>
      </trkpt>
      <trkpt lat="45.88353" lon="6.55025">
        <ele>1788</ele>
        <time>2018-03-08T10:19:58Z</time>
      </trkpt>
      <trkpt lat="45.88352" lon="6.55032">
        <ele>1789</ele>
        <time>2018-03-08T10:20:04Z</time>
      </trkpt>
      <trkpt lat="45.88353" lon="6.55039">
        <ele>1791</ele>
        <time>2018-03-08T10:20:22Z</time>
      </trkpt>
      <trkpt lat="45.88355" lon="6.55046">
        <ele>1791</ele>
        <time>2018-03-08T10:20:28Z</time>
      </trkpt>
      <trkpt lat="45.88356" lon="6.55056">
        <ele>1794</ele>
        <time>2018-03-08T10:20:43Z</time>
      </trkpt>
      <trkpt lat="45.8836" lon="6.5506">
        <ele>1795</ele>
        <time>2018-03-08T10:20:52Z</time>
      </trkpt>
      <trkpt lat="45.88364" lon="6.55066">
        <ele>1797</ele>
        <time>2018-03-08T10:21:07Z</time>
      </trkpt>
      <trkpt lat="45.88361" lon="6.55075">
        <ele>1799</ele>
        <time>2018-03-08T10:21:22Z</time>
      </trkpt>
      <trkpt lat="45.88361" lon="6.55084">
        <ele>1800</ele>
        <time>2018-03-08T10:21:37Z</time>
      </trkpt>
      <trkpt lat="45.88368" lon="6.55093">
        <ele>1807</ele>
        <time>2018-03-08T10:22:00Z</time>
      </trkpt>
      <trkpt lat="45.88369" lon="6.551">
        <ele>1810</ele>
        <time>2018-03-08T10:22:10Z</time>
      </trkpt>
      <trkpt lat="45.88368" lon="6.55106">
        <ele>1811</ele>
        <time>2018-03-08T10:22:20Z</time>
      </trkpt>
      <trkpt lat="45.88372" lon="6.55111">
        <ele>1814</ele>
        <time>2018-03-08T10:22:38Z</time>
      </trkpt>
      <trkpt lat="45.88374" lon="6.55128">
        <ele>1818</ele>
        <time>2018-03-08T10:23:11Z</time>
      </trkpt>
      <trkpt lat="45.88376" lon="6.55138">
        <ele>1821</ele>
        <time>2018-03-08T10:23:35Z</time>
      </trkpt>
      <trkpt lat="45.88377" lon="6.55144">
        <ele>1823</ele>
        <time>2018-03-08T10:23:44Z</time>
      </trkpt>
      <trkpt lat="45.88381" lon="6.5515">
        <ele>1825</ele>
        <time>2018-03-08T10:24:00Z</time>
      </trkpt>
      <trkpt lat="45.8838" lon="6.55157">
        <ele>1826</ele>
        <time>2018-03-08T10:24:06Z</time>
      </trkpt>
      <trkpt lat="45.88384" lon="6.55168">
        <ele>1829</ele>
        <time>2018-03-08T10:24:30Z</time>
      </trkpt>
      <trkpt lat="45.88387" lon="6.55174">
        <ele>1832</ele>
        <time>2018-03-08T10:24:50Z</time>
      </trkpt>
      <trkpt lat="45.88388" lon="6.55182">
        <ele>1833</ele>
        <time>2018-03-08T10:24:56Z</time>
      </trkpt>
      <trkpt lat="45.88395" lon="6.55194">
        <ele>1836</ele>
        <time>2018-03-08T10:25:15Z</time>
      </trkpt>
      <trkpt lat="45.88395" lon="6.55204">
        <ele>1839</ele>
        <time>2018-03-08T10:25:41Z</time>
      </trkpt>
      <trkpt lat="45.88396" lon="6.55212">
        <ele>1843</ele>
        <time>2018-03-08T10:26:03Z</time>
      </trkpt>
      <trkpt lat="45.88398" lon="6.55217">
        <ele>1844</ele>
        <time>2018-03-08T10:26:09Z</time>
      </trkpt>
      <trkpt lat="45.88397" lon="6.55224">
        <ele>1846</ele>
        <time>2018-03-08T10:26:17Z</time>
      </trkpt>
      <trkpt lat="45.88396" lon="6.55239">
        <ele>1848</ele>
        <time>2018-03-08T10:26:42Z</time>
      </trkpt>
      <trkpt lat="45.884" lon="6.55249">
        <ele>1851</ele>
        <time>2018-03-08T10:27:10Z</time>
      </trkpt>
      <trkpt lat="45.88406" lon="6.55256">
        <ele>1854</ele>
        <time>2018-03-08T10:27:23Z</time>
      </trkpt>
      <trkpt lat="45.88408" lon="6.55265">
        <ele>1856</ele>
        <time>2018-03-08T10:27:38Z</time>
      </trkpt>
      <trkpt lat="45.88406" lon="6.55271">
        <ele>1858</ele>
        <time>2018-03-08T10:27:45Z</time>
      </trkpt>
      <trkpt lat="45.88405" lon="6.55278">
        <ele>1859</ele>
        <time>2018-03-08T10:27:52Z</time>
      </trkpt>
      <trkpt lat="45.88409" lon="6.55283">
        <ele>1861</ele>
        <time>2018-03-08T10:28:00Z</time>
      </trkpt>
      <trkpt lat="45.88412" lon="6.55292">
        <ele>1865</ele>
        <time>2018-03-08T10:28:27Z</time>
      </trkpt>
      <trkpt lat="45.88412" lon="6.55301">
        <ele>1866</ele>
        <time>2018-03-08T10:28:41Z</time>
      </trkpt>
      <trkpt lat="45.88415" lon="6.55305">
        <ele>1868</ele>
        <time>2018-03-08T10:28:55Z</time>
      </trkpt>
      <trkpt lat="45.8842" lon="6.55313">
        <ele>1870</ele>
        <time>2018-03-08T10:29:11Z</time>
      </trkpt>
      <trkpt lat="45.88423" lon="6.55321">
        <ele>1872</ele>
        <time>2018-03-08T10:29:24Z</time>
      </trkpt>
      <trkpt lat="45.88421" lon="6.55332">
        <ele>1877</ele>
        <time>2018-03-08T10:30:09Z</time>
      </trkpt>
      <trkpt lat="45.88429" lon="6.55357">
        <ele>1882</ele>
        <time>2018-03-08T10:30:44Z</time>
      </trkpt>
      <trkpt lat="45.8843" lon="6.55374">
        <ele>1887</ele>
        <time>2018-03-08T10:31:10Z</time>
      </trkpt>
      <trkpt lat="45.88427" lon="6.55385">
        <ele>1890</ele>
        <time>2018-03-08T10:31:29Z</time>
      </trkpt>
      <trkpt lat="45.88426" lon="6.55392">
        <ele>1890</ele>
        <time>2018-03-08T10:31:34Z</time>
      </trkpt>
      <trkpt lat="45.88423" lon="6.55405">
        <ele>1892</ele>
        <time>2018-03-08T10:31:44Z</time>
      </trkpt>
      <trkpt lat="45.88426" lon="6.55411">
        <ele>1894</ele>
        <time>2018-03-08T10:32:02Z</time>
      </trkpt>
      <trkpt lat="45.88436" lon="6.55425">
        <ele>1897</ele>
        <time>2018-03-08T10:32:33Z</time>
      </trkpt>
      <trkpt lat="45.88432" lon="6.55429">
        <ele>1899</ele>
        <time>2018-03-08T10:32:53Z</time>
      </trkpt>
      <trkpt lat="45.88432" lon="6.55436">
        <ele>1900</ele>
        <time>2018-03-08T10:33:01Z</time>
      </trkpt>
      <trkpt lat="45.88437" lon="6.55448">
        <ele>1901</ele>
        <time>2018-03-08T10:33:12Z</time>
      </trkpt>
      <trkpt lat="45.88434" lon="6.55458">
        <ele>1904</ele>
        <time>2018-03-08T10:33:37Z</time>
      </trkpt>
      <trkpt lat="45.88428" lon="6.55474">
        <ele>1907</ele>
        <time>2018-03-08T10:33:56Z</time>
      </trkpt>
      <trkpt lat="45.88429" lon="6.55485">
        <ele>1909</ele>
        <time>2018-03-08T10:34:09Z</time>
      </trkpt>
      <trkpt lat="45.88431" lon="6.55493">
        <ele>1913</ele>
        <time>2018-03-08T10:34:36Z</time>
      </trkpt>
      <trkpt lat="45.8843" lon="6.555">
        <ele>1914</ele>
        <time>2018-03-08T10:34:54Z</time>
      </trkpt>
      <trkpt lat="45.88432" lon="6.55511">
        <ele>1919</ele>
        <time>2018-03-08T10:35:21Z</time>
      </trkpt>
      <trkpt lat="45.8843" lon="6.55521">
        <ele>1921</ele>
        <time>2018-03-08T10:35:38Z</time>
      </trkpt>
      <trkpt lat="45.88439" lon="6.55538">
        <ele>1924</ele>
        <time>2018-03-08T10:36:03Z</time>
      </trkpt>
      <trkpt lat="45.88436" lon="6.55544">
        <ele>1926</ele>
        <time>2018-03-08T10:36:18Z</time>
      </trkpt>
      <trkpt lat="45.88432" lon="6.55547">
        <ele>1926</ele>
        <time>2018-03-08T10:36:26Z</time>
      </trkpt>
      <trkpt lat="45.8842" lon="6.55563">
        <ele>1931</ele>
        <time>2018-03-08T10:37:07Z</time>
      </trkpt>
      <trkpt lat="45.8841" lon="6.55579">
        <ele>1935</ele>
        <time>2018-03-08T10:37:31Z</time>
      </trkpt>
      <trkpt lat="45.88409" lon="6.55588">
        <ele>1937</ele>
        <time>2018-03-08T10:38:06Z</time>
      </trkpt>
      <trkpt lat="45.88411" lon="6.55594">
        <ele>1937</ele>
        <time>2018-03-08T10:38:09Z</time>
      </trkpt>
      <trkpt lat="45.88409" lon="6.556">
        <ele>1939</ele>
        <time>2018-03-08T10:38:21Z</time>
      </trkpt>
      <trkpt lat="45.88411" lon="6.55621">
        <ele>1942</ele>
        <time>2018-03-08T10:38:39Z</time>
      </trkpt>
      <trkpt lat="45.88407" lon="6.55632">
        <ele>1943</ele>
        <time>2018-03-08T10:38:58Z</time>
      </trkpt>
      <trkpt lat="45.88407" lon="6.5566">
        <ele>1948</ele>
        <time>2018-03-08T10:39:24Z</time>
      </trkpt>
      <trkpt lat="45.88413" lon="6.55676">
        <ele>1950</ele>
        <time>2018-03-08T10:39:48Z</time>
      </trkpt>
      <trkpt lat="45.88415" lon="6.55683">
        <ele>1951</ele>
        <time>2018-03-08T10:39:54Z</time>
      </trkpt>
      <trkpt lat="45.88417" lon="6.55694">
        <ele>1953</ele>
        <time>2018-03-08T10:40:22Z</time>
      </trkpt>
      <trkpt lat="45.8842" lon="6.55699">
        <ele>1955</ele>
        <time>2018-03-08T10:40:27Z</time>
      </trkpt>
      <trkpt lat="45.88422" lon="6.55705">
        <ele>1956</ele>
        <time>2018-03-08T10:40:32Z</time>
      </trkpt>
      <trkpt lat="45.88426" lon="6.55698">
        <ele>1959</ele>
        <time>2018-03-08T10:41:02Z</time>
      </trkpt>
      <trkpt lat="45.88434" lon="6.55698">
        <ele>1961</ele>
        <time>2018-03-08T10:41:15Z</time>
      </trkpt>
      <trkpt lat="45.88445" lon="6.55704">
        <ele>1968</ele>
        <time>2018-03-08T10:41:46Z</time>
      </trkpt>
      <trkpt lat="45.88459" lon="6.55722">
        <ele>1973</ele>
        <time>2018-03-08T10:42:19Z</time>
      </trkpt>
      <trkpt lat="45.88471" lon="6.55746">
        <ele>1976</ele>
        <time>2018-03-08T10:42:48Z</time>
      </trkpt>
      <trkpt lat="45.88478" lon="6.55756">
        <ele>1977</ele>
        <time>2018-03-08T10:43:00Z</time>
      </trkpt>
      <trkpt lat="45.88483" lon="6.55784">
        <ele>1980</ele>
        <time>2018-03-08T10:43:27Z</time>
      </trkpt>
      <trkpt lat="45.88486" lon="6.55789">
        <ele>1981</ele>
        <time>2018-03-08T10:43:41Z</time>
      </trkpt>
      <trkpt lat="45.88489" lon="6.55803">
        <ele>1984</ele>
        <time>2018-03-08T10:44:00Z</time>
      </trkpt>
      <trkpt lat="45.88501" lon="6.55823">
        <ele>1988</ele>
        <time>2018-03-08T10:44:34Z</time>
      </trkpt>
      <trkpt lat="45.88517" lon="6.55837">
        <ele>1994</ele>
        <time>2018-03-08T10:45:03Z</time>
      </trkpt>
      <trkpt lat="45.88521" lon="6.5584">
        <ele>1996</ele>
        <time>2018-03-08T10:45:09Z</time>
      </trkpt>
      <trkpt lat="45.88533" lon="6.55858">
        <ele>1999</ele>
        <time>2018-03-08T10:45:39Z</time>
      </trkpt>
      <trkpt lat="45.88536" lon="6.55873">
        <ele>2001</ele>
        <time>2018-03-08T10:45:58Z</time>
      </trkpt>
      <trkpt lat="45.88532" lon="6.5587">
        <ele>2007</ele>
        <time>2018-03-08T11:00:48Z</time>
      </trkpt>
      <trkpt lat="45.88522" lon="6.5586">
        <ele>2008</ele>
        <time>2018-03-08T11:00:56Z</time>
      </trkpt>
      <trkpt lat="45.88517" lon="6.55856">
        <ele>2007</ele>
        <time>2018-03-08T11:00:58Z</time>
      </trkpt>
      <trkpt lat="45.88512" lon="6.55852">
        <ele>2006</ele>
        <time>2018-03-08T11:01:00Z</time>
      </trkpt>
      <trkpt lat="45.88508" lon="6.55845">
        <ele>2004</ele>
        <time>2018-03-08T11:01:04Z</time>
      </trkpt>
      <trkpt lat="45.88504" lon="6.55842">
        <ele>2003</ele>
        <time>2018-03-08T11:01:06Z</time>
      </trkpt>
      <trkpt lat="45.885" lon="6.55835">
        <ele>2001</ele>
        <time>2018-03-08T11:01:10Z</time>
      </trkpt>
      <trkpt lat="45.88496" lon="6.55828">
        <ele>2000</ele>
        <time>2018-03-08T11:01:13Z</time>
      </trkpt>
      <trkpt lat="45.88491" lon="6.55827">
        <ele>1999</ele>
        <time>2018-03-08T11:01:15Z</time>
      </trkpt>
      <trkpt lat="45.88484" lon="6.5583">
        <ele>1996</ele>
        <time>2018-03-08T11:01:17Z</time>
      </trkpt>
      <trkpt lat="45.8848" lon="6.55826">
        <ele>1995</ele>
        <time>2018-03-08T11:01:19Z</time>
      </trkpt>
      <trkpt lat="45.88462" lon="6.55786">
        <ele>1988</ele>
        <time>2018-03-08T11:01:31Z</time>
      </trkpt>
      <trkpt lat="45.88451" lon="6.5576">
        <ele>1984</ele>
        <time>2018-03-08T11:01:39Z</time>
      </trkpt>
      <trkpt lat="45.88447" lon="6.55753">
        <ele>1982</ele>
        <time>2018-03-08T11:01:41Z</time>
      </trkpt>
      <trkpt lat="45.88441" lon="6.55753">
        <ele>1981</ele>
        <time>2018-03-08T11:01:43Z</time>
      </trkpt>
      <trkpt lat="45.88438" lon="6.5576">
        <ele>1979</ele>
        <time>2018-03-08T11:01:45Z</time>
      </trkpt>
      <trkpt lat="45.88432" lon="6.55758">
        <ele>1978</ele>
        <time>2018-03-08T11:01:47Z</time>
      </trkpt>
      <trkpt lat="45.88428" lon="6.55743">
        <ele>1975</ele>
        <time>2018-03-08T11:01:51Z</time>
      </trkpt>
      <trkpt lat="45.88423" lon="6.55737">
        <ele>1974</ele>
        <time>2018-03-08T11:01:53Z</time>
      </trkpt>
      <trkpt lat="45.88419" lon="6.55742">
        <ele>1972</ele>
        <time>2018-03-08T11:01:55Z</time>
      </trkpt>
      <trkpt lat="45.88416" lon="6.55761">
        <ele>1968</ele>
        <time>2018-03-08T11:01:59Z</time>
      </trkpt>
      <trkpt lat="45.88415" lon="6.5577">
        <ele>1967</ele>
        <time>2018-03-08T11:02:01Z</time>
      </trkpt>
      <trkpt lat="45.88408" lon="6.55772">
        <ele>1965</ele>
        <time>2018-03-08T11:02:04Z</time>
      </trkpt>
      <trkpt lat="45.88396" lon="6.55767">
        <ele>1962</ele>
        <time>2018-03-08T11:02:08Z</time>
      </trkpt>
      <trkpt lat="45.88389" lon="6.55769">
        <ele>1960</ele>
        <time>2018-03-08T11:02:10Z</time>
      </trkpt>
      <trkpt lat="45.88383" lon="6.55771">
        <ele>1958</ele>
        <time>2018-03-08T11:02:12Z</time>
      </trkpt>
      <trkpt lat="45.88364" lon="6.55761">
        <ele>1953</ele>
        <time>2018-03-08T11:02:18Z</time>
      </trkpt>
      <trkpt lat="45.88357" lon="6.55754">
        <ele>1950</ele>
        <time>2018-03-08T11:02:20Z</time>
      </trkpt>
      <trkpt lat="45.88353" lon="6.55751">
        <ele>1949</ele>
        <time>2018-03-08T11:02:21Z</time>
      </trkpt>
      <trkpt lat="45.88335" lon="6.5572">
        <ele>1941</ele>
        <time>2018-03-08T11:02:29Z</time>
      </trkpt>
      <trkpt lat="45.8833" lon="6.55706">
        <ele>1936</ele>
        <time>2018-03-08T11:02:40Z</time>
      </trkpt>
      <trkpt lat="45.88324" lon="6.55703">
        <ele>1936</ele>
        <time>2018-03-08T11:03:25Z</time>
      </trkpt>
      <trkpt lat="45.88317" lon="6.55701">
        <ele>1936</ele>
        <time>2018-03-08T11:03:27Z</time>
      </trkpt>
      <trkpt lat="45.88301" lon="6.55699">
        <ele>1932</ele>
        <time>2018-03-08T11:03:31Z</time>
      </trkpt>
      <trkpt lat="45.88289" lon="6.55703">
        <ele>1925</ele>
        <time>2018-03-08T11:03:35Z</time>
      </trkpt>
      <trkpt lat="45.88284" lon="6.55705">
        <ele>1923</ele>
        <time>2018-03-08T11:03:37Z</time>
      </trkpt>
      <trkpt lat="45.88267" lon="6.55709">
        <ele>1913</ele>
        <time>2018-03-08T11:03:43Z</time>
      </trkpt>
      <trkpt lat="45.88262" lon="6.55705">
        <ele>1910</ele>
        <time>2018-03-08T11:03:45Z</time>
      </trkpt>
      <trkpt lat="45.88257" lon="6.55703">
        <ele>1908</ele>
        <time>2018-03-08T11:03:47Z</time>
      </trkpt>
      <trkpt lat="45.88252" lon="6.55704">
        <ele>1905</ele>
        <time>2018-03-08T11:03:49Z</time>
      </trkpt>
      <trkpt lat="45.88242" lon="6.55699">
        <ele>1900</ele>
        <time>2018-03-08T11:03:53Z</time>
      </trkpt>
      <trkpt lat="45.88229" lon="6.55695">
        <ele>1895</ele>
        <time>2018-03-08T11:03:57Z</time>
      </trkpt>
      <trkpt lat="45.88228" lon="6.55701">
        <ele>1889</ele>
        <time>2018-03-08T11:04:37Z</time>
      </trkpt>
      <trkpt lat="45.88224" lon="6.55706">
        <ele>1889</ele>
        <time>2018-03-08T11:05:22Z</time>
      </trkpt>
      <trkpt lat="45.88216" lon="6.5571">
        <ele>1888</ele>
        <time>2018-03-08T11:05:24Z</time>
      </trkpt>
      <trkpt lat="45.88212" lon="6.55712">
        <ele>1887</ele>
        <time>2018-03-08T11:05:25Z</time>
      </trkpt>
      <trkpt lat="45.88207" lon="6.55714">
        <ele>1885</ele>
        <time>2018-03-08T11:05:26Z</time>
      </trkpt>
      <trkpt lat="45.88203" lon="6.55716">
        <ele>1884</ele>
        <time>2018-03-08T11:05:27Z</time>
      </trkpt>
      <trkpt lat="45.88199" lon="6.55719">
        <ele>1882</ele>
        <time>2018-03-08T11:05:28Z</time>
      </trkpt>
      <trkpt lat="45.88189" lon="6.55725">
        <ele>1879</ele>
        <time>2018-03-08T11:05:30Z</time>
      </trkpt>
      <trkpt lat="45.88184" lon="6.55726">
        <ele>1877</ele>
        <time>2018-03-08T11:05:31Z</time>
      </trkpt>
      <trkpt lat="45.88174" lon="6.5573">
        <ele>1874</ele>
        <time>2018-03-08T11:05:33Z</time>
      </trkpt>
      <trkpt lat="45.88167" lon="6.55724">
        <ele>1872</ele>
        <time>2018-03-08T11:05:35Z</time>
      </trkpt>
      <trkpt lat="45.88162" lon="6.55715">
        <ele>1866</ele>
        <time>2018-03-08T11:07:14Z</time>
      </trkpt>
      <trkpt lat="45.88147" lon="6.55699">
        <ele>1863</ele>
        <time>2018-03-08T11:07:20Z</time>
      </trkpt>
      <trkpt lat="45.88141" lon="6.55693">
        <ele>1861</ele>
        <time>2018-03-08T11:07:22Z</time>
      </trkpt>
      <trkpt lat="45.88137" lon="6.55686">
        <ele>1859</ele>
        <time>2018-03-08T11:07:24Z</time>
      </trkpt>
      <trkpt lat="45.88133" lon="6.55668">
        <ele>1855</ele>
        <time>2018-03-08T11:07:28Z</time>
      </trkpt>
      <trkpt lat="45.88128" lon="6.55662">
        <ele>1853</ele>
        <time>2018-03-08T11:07:30Z</time>
      </trkpt>
      <trkpt lat="45.8812" lon="6.5566">
        <ele>1851</ele>
        <time>2018-03-08T11:07:32Z</time>
      </trkpt>
      <trkpt lat="45.88091" lon="6.55656">
        <ele>1842</ele>
        <time>2018-03-08T11:07:39Z</time>
      </trkpt>
      <trkpt lat="45.88075" lon="6.5565">
        <ele>1837</ele>
        <time>2018-03-08T11:07:42Z</time>
      </trkpt>
      <trkpt lat="45.88034" lon="6.55637">
        <ele>1826</ele>
        <time>2018-03-08T11:07:50Z</time>
      </trkpt>
      <trkpt lat="45.88015" lon="6.55617">
        <ele>1820</ele>
        <time>2018-03-08T11:07:56Z</time>
      </trkpt>
      <trkpt lat="45.87994" lon="6.55607">
        <ele>1815</ele>
        <time>2018-03-08T11:08:02Z</time>
      </trkpt>
      <trkpt lat="45.87987" lon="6.55601">
        <ele>1813</ele>
        <time>2018-03-08T11:08:04Z</time>
      </trkpt>
      <trkpt lat="45.87972" lon="6.55584">
        <ele>1809</ele>
        <time>2018-03-08T11:08:11Z</time>
      </trkpt>
      <trkpt lat="45.87972" lon="6.55572">
        <ele>1807</ele>
        <time>2018-03-08T11:08:49Z</time>
      </trkpt>
      <trkpt lat="45.87974" lon="6.55562">
        <ele>1807</ele>
        <time>2018-03-08T11:08:51Z</time>
      </trkpt>
      <trkpt lat="45.87978" lon="6.55526">
        <ele>1802</ele>
        <time>2018-03-08T11:08:57Z</time>
      </trkpt>
      <trkpt lat="45.87977" lon="6.55512">
        <ele>1799</ele>
        <time>2018-03-08T11:08:59Z</time>
      </trkpt>
      <trkpt lat="45.87978" lon="6.55472">
        <ele>1789</ele>
        <time>2018-03-08T11:09:05Z</time>
      </trkpt>
      <trkpt lat="45.8798" lon="6.5546">
        <ele>1786</ele>
        <time>2018-03-08T11:09:07Z</time>
      </trkpt>
      <trkpt lat="45.8798" lon="6.55453">
        <ele>1784</ele>
        <time>2018-03-08T11:09:08Z</time>
      </trkpt>
      <trkpt lat="45.87979" lon="6.5543">
        <ele>1777</ele>
        <time>2018-03-08T11:09:12Z</time>
      </trkpt>
      <trkpt lat="45.87976" lon="6.55395">
        <ele>1766</ele>
        <time>2018-03-08T11:09:17Z</time>
      </trkpt>
      <trkpt lat="45.87974" lon="6.55386">
        <ele>1764</ele>
        <time>2018-03-08T11:09:19Z</time>
      </trkpt>
      <trkpt lat="45.87975" lon="6.55379">
        <ele>1761</ele>
        <time>2018-03-08T11:09:21Z</time>
      </trkpt>
      <trkpt lat="45.87971" lon="6.55372">
        <ele>1756</ele>
        <time>2018-03-08T11:10:10Z</time>
      </trkpt>
      <trkpt lat="45.87966" lon="6.55374">
        <ele>1755</ele>
        <time>2018-03-08T11:10:12Z</time>
      </trkpt>
      <trkpt lat="45.87961" lon="6.55376">
        <ele>1754</ele>
        <time>2018-03-08T11:10:14Z</time>
      </trkpt>
      <trkpt lat="45.87957" lon="6.5537">
        <ele>1753</ele>
        <time>2018-03-08T11:10:17Z</time>
      </trkpt>
      <trkpt lat="45.87948" lon="6.55367">
        <ele>1750</ele>
        <time>2018-03-08T11:10:19Z</time>
      </trkpt>
      <trkpt lat="45.8793" lon="6.55366">
        <ele>1746</ele>
        <time>2018-03-08T11:10:22Z</time>
      </trkpt>
      <trkpt lat="45.87903" lon="6.55371">
        <ele>1741</ele>
        <time>2018-03-08T11:10:27Z</time>
      </trkpt>
      <trkpt lat="45.87897" lon="6.55374">
        <ele>1740</ele>
        <time>2018-03-08T11:10:29Z</time>
      </trkpt>
      <trkpt lat="45.87895" lon="6.55381">
        <ele>1737</ele>
        <time>2018-03-08T11:11:06Z</time>
      </trkpt>
      <trkpt lat="45.87887" lon="6.55393">
        <ele>1736</ele>
        <time>2018-03-08T11:11:13Z</time>
      </trkpt>
      <trkpt lat="45.87882" lon="6.55398">
        <ele>1735</ele>
        <time>2018-03-08T11:11:15Z</time>
      </trkpt>
      <trkpt lat="45.87857" lon="6.55408">
        <ele>1730</ele>
        <time>2018-03-08T11:11:28Z</time>
      </trkpt>
      <trkpt lat="45.87841" lon="6.55408">
        <ele>1727</ele>
        <time>2018-03-08T11:11:42Z</time>
      </trkpt>
      <trkpt lat="45.8784" lon="6.55399">
        <ele>1725</ele>
        <time>2018-03-08T11:11:45Z</time>
      </trkpt>
      <trkpt lat="45.87836" lon="6.55392">
        <ele>1723</ele>
        <time>2018-03-08T11:11:48Z</time>
      </trkpt>
      <trkpt lat="45.87825" lon="6.5538">
        <ele>1718</ele>
        <time>2018-03-08T11:11:52Z</time>
      </trkpt>
      <trkpt lat="45.8782" lon="6.55376">
        <ele>1716</ele>
        <time>2018-03-08T11:11:54Z</time>
      </trkpt>
      <trkpt lat="45.87814" lon="6.55362">
        <ele>1710</ele>
        <time>2018-03-08T11:11:58Z</time>
      </trkpt>
      <trkpt lat="45.87811" lon="6.55355">
        <ele>1707</ele>
        <time>2018-03-08T11:12:00Z</time>
      </trkpt>
      <trkpt lat="45.87807" lon="6.55352">
        <ele>1704</ele>
        <time>2018-03-08T11:12:02Z</time>
      </trkpt>
      <trkpt lat="45.87801" lon="6.55345">
        <ele>1702</ele>
        <time>2018-03-08T11:12:04Z</time>
      </trkpt>
      <trkpt lat="45.87798" lon="6.5534">
        <ele>1700</ele>
        <time>2018-03-08T11:12:05Z</time>
      </trkpt>
      <trkpt lat="45.87792" lon="6.55335">
        <ele>1697</ele>
        <time>2018-03-08T11:12:07Z</time>
      </trkpt>
      <trkpt lat="45.87788" lon="6.55325">
        <ele>1693</ele>
        <time>2018-03-08T11:12:53Z</time>
      </trkpt>
      <trkpt lat="45.87784" lon="6.55298">
        <ele>1689</ele>
        <time>2018-03-08T11:12:57Z</time>
      </trkpt>
      <trkpt lat="45.87773" lon="6.55278">
        <ele>1683</ele>
        <time>2018-03-08T11:13:01Z</time>
      </trkpt>
      <trkpt lat="45.87772" lon="6.55265">
        <ele>1679</ele>
        <time>2018-03-08T11:13:03Z</time>
      </trkpt>
      <trkpt lat="45.87772" lon="6.55246">
        <ele>1676</ele>
        <time>2018-03-08T11:13:05Z</time>
      </trkpt>
      <trkpt lat="45.87776" lon="6.55234">
        <ele>1672</ele>
        <time>2018-03-08T11:13:07Z</time>
      </trkpt>
      <trkpt lat="45.87777" lon="6.55227">
        <ele>1671</ele>
        <time>2018-03-08T11:13:08Z</time>
      </trkpt>
      <trkpt lat="45.87787" lon="6.55197">
        <ele>1663</ele>
        <time>2018-03-08T11:13:12Z</time>
      </trkpt>
      <trkpt lat="45.87787" lon="6.55178">
        <ele>1659</ele>
        <time>2018-03-08T11:13:14Z</time>
      </trkpt>
      <trkpt lat="45.8779" lon="6.5517">
        <ele>1656</ele>
        <time>2018-03-08T11:13:16Z</time>
      </trkpt>
      <trkpt lat="45.87797" lon="6.55169">
        <ele>1651</ele>
        <time>2018-03-08T11:13:32Z</time>
      </trkpt>
      <trkpt lat="45.87797" lon="6.55164">
        <ele>1649</ele>
        <time>2018-03-08T12:21:36Z</time>
      </trkpt>
      <trkpt lat="45.87792" lon="6.55173">
        <ele>1649</ele>
        <time>2018-03-08T12:22:09Z</time>
      </trkpt>
      <trkpt lat="45.87781" lon="6.55184">
        <ele>1649</ele>
        <time>2018-03-08T12:22:14Z</time>
      </trkpt>
      <trkpt lat="45.87774" lon="6.55189">
        <ele>1649</ele>
        <time>2018-03-08T12:22:16Z</time>
      </trkpt>
      <trkpt lat="45.87758" lon="6.55192">
        <ele>1646</ele>
        <time>2018-03-08T12:22:20Z</time>
      </trkpt>
      <trkpt lat="45.87752" lon="6.55189">
        <ele>1645</ele>
        <time>2018-03-08T12:22:22Z</time>
      </trkpt>
      <trkpt lat="45.87735" lon="6.55159">
        <ele>1639</ele>
        <time>2018-03-08T12:22:31Z</time>
      </trkpt>
      <trkpt lat="45.87725" lon="6.55133">
        <ele>1633</ele>
        <time>2018-03-08T12:22:39Z</time>
      </trkpt>
      <trkpt lat="45.87724" lon="6.55127">
        <ele>1632</ele>
        <time>2018-03-08T12:22:41Z</time>
      </trkpt>
      <trkpt lat="45.87722" lon="6.5512">
        <ele>1631</ele>
        <time>2018-03-08T12:22:43Z</time>
      </trkpt>
      <trkpt lat="45.87702" lon="6.551">
        <ele>1626</ele>
        <time>2018-03-08T12:22:49Z</time>
      </trkpt>
      <trkpt lat="45.87691" lon="6.55073">
        <ele>1621</ele>
        <time>2018-03-08T12:22:55Z</time>
      </trkpt>
      <trkpt lat="45.87688" lon="6.55064">
        <ele>1619</ele>
        <time>2018-03-08T12:23:09Z</time>
      </trkpt>
      <trkpt lat="45.87684" lon="6.55058">
        <ele>1618</ele>
        <time>2018-03-08T12:23:13Z</time>
      </trkpt>
      <trkpt lat="45.87674" lon="6.55049">
        <ele>1615</ele>
        <time>2018-03-08T12:23:19Z</time>
      </trkpt>
      <trkpt lat="45.87662" lon="6.55044">
        <ele>1612</ele>
        <time>2018-03-08T12:23:33Z</time>
      </trkpt>
      <trkpt lat="45.87657" lon="6.55042">
        <ele>1612</ele>
        <time>2018-03-08T12:24:03Z</time>
      </trkpt>
      <trkpt lat="45.87656" lon="6.55024">
        <ele>1609</ele>
        <time>2018-03-08T12:24:07Z</time>
      </trkpt>
      <trkpt lat="45.87646" lon="6.54983">
        <ele>1595</ele>
        <time>2018-03-08T12:24:17Z</time>
      </trkpt>
      <trkpt lat="45.87645" lon="6.54973">
        <ele>1591</ele>
        <time>2018-03-08T12:24:19Z</time>
      </trkpt>
      <trkpt lat="45.87637" lon="6.54954">
        <ele>1584</ele>
        <time>2018-03-08T12:24:23Z</time>
      </trkpt>
      <trkpt lat="45.87633" lon="6.54944">
        <ele>1580</ele>
        <time>2018-03-08T12:24:25Z</time>
      </trkpt>
      <trkpt lat="45.87627" lon="6.54936">
        <ele>1577</ele>
        <time>2018-03-08T12:24:27Z</time>
      </trkpt>
      <trkpt lat="45.87619" lon="6.5493">
        <ele>1574</ele>
        <time>2018-03-08T12:24:29Z</time>
      </trkpt>
      <trkpt lat="45.87615" lon="6.54925">
        <ele>1572</ele>
        <time>2018-03-08T12:24:30Z</time>
      </trkpt>
      <trkpt lat="45.87579" lon="6.54884">
        <ele>1557</ele>
        <time>2018-03-08T12:24:40Z</time>
      </trkpt>
      <trkpt lat="45.87564" lon="6.54875">
        <ele>1552</ele>
        <time>2018-03-08T12:25:25Z</time>
      </trkpt>
      <trkpt lat="45.87558" lon="6.5487">
        <ele>1551</ele>
        <time>2018-03-08T12:25:27Z</time>
      </trkpt>
      <trkpt lat="45.87557" lon="6.5486">
        <ele>1549</ele>
        <time>2018-03-08T12:25:29Z</time>
      </trkpt>
      <trkpt lat="45.87558" lon="6.54852">
        <ele>1547</ele>
        <time>2018-03-08T12:25:31Z</time>
      </trkpt>
      <trkpt lat="45.87553" lon="6.54848">
        <ele>1545</ele>
        <time>2018-03-08T12:25:33Z</time>
      </trkpt>
      <trkpt lat="45.87545" lon="6.54836">
        <ele>1541</ele>
        <time>2018-03-08T12:25:37Z</time>
      </trkpt>
      <trkpt lat="45.87539" lon="6.54831">
        <ele>1538</ele>
        <time>2018-03-08T12:25:39Z</time>
      </trkpt>
      <trkpt lat="45.87533" lon="6.5483">
        <ele>1535</ele>
        <time>2018-03-08T12:25:41Z</time>
      </trkpt>
      <trkpt lat="45.87528" lon="6.54824">
        <ele>1533</ele>
        <time>2018-03-08T12:25:43Z</time>
      </trkpt>
      <trkpt lat="45.87525" lon="6.54815">
        <ele>1530</ele>
        <time>2018-03-08T12:25:45Z</time>
      </trkpt>
      <trkpt lat="45.87523" lon="6.54808">
        <ele>1527</ele>
        <time>2018-03-08T12:25:47Z</time>
      </trkpt>
      <trkpt lat="45.87512" lon="6.54799">
        <ele>1522</ele>
        <time>2018-03-08T12:25:50Z</time>
      </trkpt>
      <trkpt lat="45.87512" lon="6.54788">
        <ele>1519</ele>
        <time>2018-03-08T12:25:52Z</time>
      </trkpt>
      <trkpt lat="45.87508" lon="6.54781">
        <ele>1517</ele>
        <time>2018-03-08T12:25:54Z</time>
      </trkpt>
      <trkpt lat="45.87508" lon="6.54771">
        <ele>1514</ele>
        <time>2018-03-08T12:25:56Z</time>
      </trkpt>
      <trkpt lat="45.87505" lon="6.5476">
        <ele>1511</ele>
        <time>2018-03-08T12:25:58Z</time>
      </trkpt>
      <trkpt lat="45.87498" lon="6.54756">
        <ele>1509</ele>
        <time>2018-03-08T12:26:00Z</time>
      </trkpt>
      <trkpt lat="45.87483" lon="6.54757">
        <ele>1504</ele>
        <time>2018-03-08T12:26:04Z</time>
      </trkpt>
      <trkpt lat="45.8748" lon="6.54748">
        <ele>1498</ele>
        <time>2018-03-08T12:27:15Z</time>
      </trkpt>
      <trkpt lat="45.87483" lon="6.54743">
        <ele>1497</ele>
        <time>2018-03-08T12:27:20Z</time>
      </trkpt>
      <trkpt lat="45.87479" lon="6.54735">
        <ele>1495</ele>
        <time>2018-03-08T12:27:23Z</time>
      </trkpt>
      <trkpt lat="45.87474" lon="6.5473">
        <ele>1492</ele>
        <time>2018-03-08T12:27:26Z</time>
      </trkpt>
      <trkpt lat="45.87469" lon="6.54727">
        <ele>1490</ele>
        <time>2018-03-08T12:27:29Z</time>
      </trkpt>
      <trkpt lat="45.87469" lon="6.54718">
        <ele>1485</ele>
        <time>2018-03-08T12:27:33Z</time>
      </trkpt>
      <trkpt lat="45.87465" lon="6.54712">
        <ele>1482</ele>
        <time>2018-03-08T12:27:37Z</time>
      </trkpt>
      <trkpt lat="45.87462" lon="6.54707">
        <ele>1478</ele>
        <time>2018-03-08T12:27:40Z</time>
      </trkpt>
      <trkpt lat="45.87462" lon="6.547">
        <ele>1476</ele>
        <time>2018-03-08T12:27:42Z</time>
      </trkpt>
      <trkpt lat="45.87456" lon="6.54701">
        <ele>1473</ele>
        <time>2018-03-08T12:27:46Z</time>
      </trkpt>
      <trkpt lat="45.8745" lon="6.54696">
        <ele>1466</ele>
        <time>2018-03-08T12:27:55Z</time>
      </trkpt>
      <trkpt lat="45.87446" lon="6.54699">
        <ele>1465</ele>
        <time>2018-03-08T12:27:57Z</time>
      </trkpt>
      <trkpt lat="45.87439" lon="6.54684">
        <ele>1454</ele>
        <time>2018-03-08T12:28:17Z</time>
      </trkpt>
      <trkpt lat="45.87443" lon="6.54661">
        <ele>1444</ele>
        <time>2018-03-08T12:28:44Z</time>
      </trkpt>
      <trkpt lat="45.87448" lon="6.54655">
        <ele>1443</ele>
        <time>2018-03-08T12:28:49Z</time>
      </trkpt>
      <trkpt lat="45.87457" lon="6.54645">
        <ele>1441</ele>
        <time>2018-03-08T12:28:52Z</time>
      </trkpt>
      <trkpt lat="45.87492" lon="6.54627">
        <ele>1434</ele>
        <time>2018-03-08T12:29:02Z</time>
      </trkpt>
      <trkpt lat="45.87498" lon="6.54625">
        <ele>1433</ele>
        <time>2018-03-08T12:29:04Z</time>
      </trkpt>
      <trkpt lat="45.875" lon="6.54614">
        <ele>1430</ele>
        <time>2018-03-08T12:29:28Z</time>
      </trkpt>
      <trkpt lat="45.87497" lon="6.54607">
        <ele>1429</ele>
        <time>2018-03-08T12:29:30Z</time>
      </trkpt>
      <trkpt lat="45.87493" lon="6.546">
        <ele>1427</ele>
        <time>2018-03-08T12:29:32Z</time>
      </trkpt>
      <trkpt lat="45.87491" lon="6.54593">
        <ele>1425</ele>
        <time>2018-03-08T12:29:34Z</time>
      </trkpt>
      <trkpt lat="45.87485" lon="6.54578">
        <ele>1421</ele>
        <time>2018-03-08T12:29:38Z</time>
      </trkpt>
      <trkpt lat="45.8748" lon="6.54564">
        <ele>1415</ele>
        <time>2018-03-08T12:29:42Z</time>
      </trkpt>
      <trkpt lat="45.87479" lon="6.54556">
        <ele>1411</ele>
        <time>2018-03-08T12:29:44Z</time>
      </trkpt>
      <trkpt lat="45.87482" lon="6.54548">
        <ele>1410</ele>
        <time>2018-03-08T12:29:46Z</time>
      </trkpt>
      <trkpt lat="45.87476" lon="6.54543">
        <ele>1406</ele>
        <time>2018-03-08T12:29:49Z</time>
      </trkpt>
      <trkpt lat="45.87443" lon="6.54514">
        <ele>1391</ele>
        <time>2018-03-08T12:30:01Z</time>
      </trkpt>
      <trkpt lat="45.87438" lon="6.54509">
        <ele>1388</ele>
        <time>2018-03-08T12:30:03Z</time>
      </trkpt>
      <trkpt lat="45.87434" lon="6.54503">
        <ele>1385</ele>
        <time>2018-03-08T12:30:05Z</time>
      </trkpt>
      <trkpt lat="45.87429" lon="6.54496">
        <ele>1382</ele>
        <time>2018-03-08T12:30:07Z</time>
      </trkpt>
      <trkpt lat="45.87431" lon="6.54488">
        <ele>1380</ele>
        <time>2018-03-08T12:30:09Z</time>
      </trkpt>
      <trkpt lat="45.87429" lon="6.5448">
        <ele>1377</ele>
        <time>2018-03-08T12:30:22Z</time>
      </trkpt>
      <trkpt lat="45.87428" lon="6.5448">
        <ele>1374</ele>
        <time>2018-03-08T12:31:59Z</time>
      </trkpt>
      <trkpt lat="45.87392" lon="6.54497">
        <ele>1370</ele>
        <time>2018-03-08T12:32:06Z</time>
      </trkpt>
      <trkpt lat="45.87385" lon="6.54499">
        <ele>1369</ele>
        <time>2018-03-08T12:32:08Z</time>
      </trkpt>
      <trkpt lat="45.87378" lon="6.54502">
        <ele>1368</ele>
        <time>2018-03-08T12:32:10Z</time>
      </trkpt>
      <trkpt lat="45.87371" lon="6.54505">
        <ele>1367</ele>
        <time>2018-03-08T12:32:14Z</time>
      </trkpt>
      <trkpt lat="45.87368" lon="6.54512">
        <ele>1366</ele>
        <time>2018-03-08T12:32:35Z</time>
      </trkpt>
      <trkpt lat="45.87363" lon="6.54512">
        <ele>1365</ele>
        <time>2018-03-08T12:33:07Z</time>
      </trkpt>
      <trkpt lat="45.87359" lon="6.54508">
        <ele>1363</ele>
        <time>2018-03-08T12:33:11Z</time>
      </trkpt>
      <trkpt lat="45.87353" lon="6.54506">
        <ele>1361</ele>
        <time>2018-03-08T12:33:14Z</time>
      </trkpt>
      <trkpt lat="45.87351" lon="6.545">
        <ele>1360</ele>
        <time>2018-03-08T12:33:16Z</time>
      </trkpt>
      <trkpt lat="45.87346" lon="6.54496">
        <ele>1358</ele>
        <time>2018-03-08T12:33:18Z</time>
      </trkpt>
      <trkpt lat="45.87349" lon="6.54496">
        <ele>1353</ele>
        <time>2018-03-08T12:39:40Z</time>
      </trkpt>
      <trkpt lat="45.87355" lon="6.54494">
        <ele>1355</ele>
        <time>2018-03-08T12:39:55Z</time>
      </trkpt>
      <trkpt lat="45.87366" lon="6.54493">
        <ele>1357</ele>
        <time>2018-03-08T12:40:18Z</time>
      </trkpt>
      <trkpt lat="45.87378" lon="6.54486">
        <ele>1360</ele>
        <time>2018-03-08T12:41:06Z</time>
      </trkpt>
      <trkpt lat="45.87387" lon="6.54477">
        <ele>1362</ele>
        <time>2018-03-08T12:41:28Z</time>
      </trkpt>
      <trkpt lat="45.87393" lon="6.54472">
        <ele>1363</ele>
        <time>2018-03-08T12:41:40Z</time>
      </trkpt>
      <trkpt lat="45.87397" lon="6.54467">
        <ele>1363</ele>
        <time>2018-03-08T12:41:49Z</time>
      </trkpt>
      <trkpt lat="45.874" lon="6.54462">
        <ele>1363</ele>
        <time>2018-03-08T12:41:57Z</time>
      </trkpt>
      <trkpt lat="45.87405" lon="6.54451">
        <ele>1363</ele>
        <time>2018-03-08T12:42:07Z</time>
      </trkpt>
      <trkpt lat="45.87413" lon="6.54441">
        <ele>1363</ele>
        <time>2018-03-08T12:42:25Z</time>
      </trkpt>
      <trkpt lat="45.87416" lon="6.54435">
        <ele>1363</ele>
        <time>2018-03-08T12:42:31Z</time>
      </trkpt>
      <trkpt lat="45.87419" lon="6.54419">
        <ele>1363</ele>
        <time>2018-03-08T12:42:46Z</time>
      </trkpt>
      <trkpt lat="45.87419" lon="6.54397">
        <ele>1361</ele>
        <time>2018-03-08T12:42:57Z</time>
      </trkpt>
      <trkpt lat="45.87418" lon="6.5439">
        <ele>1361</ele>
        <time>2018-03-08T12:43:02Z</time>
      </trkpt>
      <trkpt lat="45.87415" lon="6.54352">
        <ele>1357</ele>
        <time>2018-03-08T12:43:10Z</time>
      </trkpt>
      <trkpt lat="45.87414" lon="6.54342">
        <ele>1356</ele>
        <time>2018-03-08T12:43:12Z</time>
      </trkpt>
      <trkpt lat="45.87423" lon="6.54316">
        <ele>1351</ele>
        <time>2018-03-08T12:43:18Z</time>
      </trkpt>
      <trkpt lat="45.87424" lon="6.54306">
        <ele>1349</ele>
        <time>2018-03-08T12:43:20Z</time>
      </trkpt>
      <trkpt lat="45.87436" lon="6.54279">
        <ele>1343</ele>
        <time>2018-03-08T12:43:26Z</time>
      </trkpt>
      <trkpt lat="45.87441" lon="6.54278">
        <ele>1340</ele>
        <time>2018-03-08T12:43:28Z</time>
      </trkpt>
      <trkpt lat="45.87444" lon="6.54285">
        <ele>1337</ele>
        <time>2018-03-08T12:43:44Z</time>
      </trkpt>
      <trkpt lat="45.87449" lon="6.54285">
        <ele>1336</ele>
        <time>2018-03-08T12:43:55Z</time>
      </trkpt>
      <trkpt lat="45.87449" lon="6.54274">
        <ele>1336</ele>
        <time>2018-03-08T12:44:52Z</time>
      </trkpt>
      <trkpt lat="45.87446" lon="6.54269">
        <ele>1336</ele>
        <time>2018-03-08T12:44:56Z</time>
      </trkpt>
      <trkpt lat="45.87453" lon="6.54265">
        <ele>1336</ele>
        <time>2018-03-08T12:45:55Z</time>
      </trkpt>
      <trkpt lat="45.87448" lon="6.54256">
        <ele>1337</ele>
        <time>2018-03-08T12:46:31Z</time>
      </trkpt>
      <trkpt lat="45.87448" lon="6.54249">
        <ele>1337</ele>
        <time>2018-03-08T12:46:37Z</time>
      </trkpt>
      <trkpt lat="45.87445" lon="6.54245">
        <ele>1336</ele>
        <time>2018-03-08T12:47:50Z</time>
      </trkpt>
      <trkpt lat="45.8745" lon="6.54242">
        <ele>1336</ele>
        <time>2018-03-08T12:48:13Z</time>
      </trkpt>
      <trkpt lat="45.87456" lon="6.54233">
        <ele>1335</ele>
        <time>2018-03-08T12:48:22Z</time>
      </trkpt>
      <trkpt lat="45.87458" lon="6.54217">
        <ele>1334</ele>
        <time>2018-03-08T12:48:28Z</time>
      </trkpt>
      <trkpt lat="45.8746" lon="6.54154">
        <ele>1329</ele>
        <time>2018-03-08T12:48:39Z</time>
      </trkpt>
      <trkpt lat="45.87459" lon="6.54145">
        <ele>1328</ele>
        <time>2018-03-08T12:48:41Z</time>
      </trkpt>
      <trkpt lat="45.87455" lon="6.54137">
        <ele>1325</ele>
        <time>2018-03-08T12:48:52Z</time>
      </trkpt>
      <trkpt lat="45.87449" lon="6.54134">
        <ele>1325</ele>
        <time>2018-03-08T12:49:52Z</time>
      </trkpt>
      <trkpt lat="45.87444" lon="6.54139">
        <ele>1326</ele>
        <time>2018-03-08T12:50:11Z</time>
      </trkpt>
      <trkpt lat="45.87433" lon="6.54156">
        <ele>1328</ele>
        <time>2018-03-08T12:50:52Z</time>
      </trkpt>
      <trkpt lat="45.87429" lon="6.54159">
        <ele>1330</ele>
        <time>2018-03-08T12:51:19Z</time>
      </trkpt>
      <trkpt lat="45.8743" lon="6.54173">
        <ele>1331</ele>
        <time>2018-03-08T12:51:34Z</time>
      </trkpt>
      <trkpt lat="45.87424" lon="6.54184">
        <ele>1333</ele>
        <time>2018-03-08T12:51:54Z</time>
      </trkpt>
      <trkpt lat="45.87419" lon="6.54188">
        <ele>1334</ele>
        <time>2018-03-08T12:52:02Z</time>
      </trkpt>
      <trkpt lat="45.87419" lon="6.54195">
        <ele>1334</ele>
        <time>2018-03-08T12:52:08Z</time>
      </trkpt>
      <trkpt lat="45.87414" lon="6.54197">
        <ele>1335</ele>
        <time>2018-03-08T12:52:24Z</time>
      </trkpt>
      <trkpt lat="45.8741" lon="6.5422">
        <ele>1336</ele>
        <time>2018-03-08T12:52:57Z</time>
      </trkpt>
      <trkpt lat="45.87406" lon="6.54228">
        <ele>1337</ele>
        <time>2018-03-08T12:53:15Z</time>
      </trkpt>
      <trkpt lat="45.87401" lon="6.54224">
        <ele>1338</ele>
        <time>2018-03-08T12:53:21Z</time>
      </trkpt>
      <trkpt lat="45.87396" lon="6.54227">
        <ele>1338</ele>
        <time>2018-03-08T12:53:29Z</time>
      </trkpt>
      <trkpt lat="45.87393" lon="6.54235">
        <ele>1339</ele>
        <time>2018-03-08T12:53:43Z</time>
      </trkpt>
      <trkpt lat="45.87392" lon="6.54247">
        <ele>1340</ele>
        <time>2018-03-08T12:54:04Z</time>
      </trkpt>
      <trkpt lat="45.87388" lon="6.54251">
        <ele>1341</ele>
        <time>2018-03-08T12:54:12Z</time>
      </trkpt>
      <trkpt lat="45.87381" lon="6.54277">
        <ele>1345</ele>
        <time>2018-03-08T12:54:55Z</time>
      </trkpt>
      <trkpt lat="45.87377" lon="6.54281">
        <ele>1346</ele>
        <time>2018-03-08T12:55:03Z</time>
      </trkpt>
      <trkpt lat="45.87373" lon="6.54293">
        <ele>1347</ele>
        <time>2018-03-08T12:55:22Z</time>
      </trkpt>
      <trkpt lat="45.87373" lon="6.543">
        <ele>1348</ele>
        <time>2018-03-08T12:55:31Z</time>
      </trkpt>
      <trkpt lat="45.87368" lon="6.5431">
        <ele>1349</ele>
        <time>2018-03-08T12:55:48Z</time>
      </trkpt>
      <trkpt lat="45.87365" lon="6.54305">
        <ele>1349</ele>
        <time>2018-03-08T12:56:32Z</time>
      </trkpt>
      <trkpt lat="45.87365" lon="6.54298">
        <ele>1349</ele>
        <time>2018-03-08T12:56:40Z</time>
      </trkpt>
      <trkpt lat="45.87362" lon="6.54269">
        <ele>1353</ele>
        <time>2018-03-08T12:57:16Z</time>
      </trkpt>
      <trkpt lat="45.87363" lon="6.54262">
        <ele>1354</ele>
        <time>2018-03-08T12:57:35Z</time>
      </trkpt>
      <trkpt lat="45.87365" lon="6.54253">
        <ele>1355</ele>
        <time>2018-03-08T12:57:57Z</time>
      </trkpt>
      <trkpt lat="45.87364" lon="6.54247">
        <ele>1355</ele>
        <time>2018-03-08T12:58:38Z</time>
      </trkpt>
      <trkpt lat="45.87361" lon="6.54249">
        <ele>1354</ele>
        <time>2018-03-08T13:01:27Z</time>
      </trkpt>
      <trkpt lat="45.87357" lon="6.54248">
        <ele>1353</ele>
        <time>2018-03-08T13:01:51Z</time>
      </trkpt>
      <trkpt lat="45.8736" lon="6.5424">
        <ele>1352</ele>
        <time>2018-03-08T13:03:05Z</time>
      </trkpt>
      <trkpt lat="45.87375" lon="6.54197">
        <ele>1349</ele>
        <time>2018-03-08T13:03:16Z</time>
      </trkpt>
      <trkpt lat="45.87387" lon="6.54172">
        <ele>1348</ele>
        <time>2018-03-08T13:03:22Z</time>
      </trkpt>
      <trkpt lat="45.87402" lon="6.54133">
        <ele>1346</ele>
        <time>2018-03-08T13:03:28Z</time>
      </trkpt>
      <trkpt lat="45.87427" lon="6.54087">
        <ele>1343</ele>
        <time>2018-03-08T13:03:35Z</time>
      </trkpt>
      <trkpt lat="45.87515" lon="6.53976">
        <ele>1335</ele>
        <time>2018-03-08T13:03:57Z</time>
      </trkpt>
      <trkpt lat="45.87523" lon="6.53962">
        <ele>1334</ele>
        <time>2018-03-08T13:04:00Z</time>
      </trkpt>
      <trkpt lat="45.87558" lon="6.53921">
        <ele>1331</ele>
        <time>2018-03-08T13:04:07Z</time>
      </trkpt>
      <trkpt lat="45.87568" lon="6.53902">
        <ele>1330</ele>
        <time>2018-03-08T13:04:09Z</time>
      </trkpt>
      <trkpt lat="45.87588" lon="6.53885">
        <ele>1329</ele>
        <time>2018-03-08T13:04:12Z</time>
      </trkpt>
      <trkpt lat="45.87621" lon="6.53838">
        <ele>1325</ele>
        <time>2018-03-08T13:04:18Z</time>
      </trkpt>
      <trkpt lat="45.87627" lon="6.53819">
        <ele>1323</ele>
        <time>2018-03-08T13:04:20Z</time>
      </trkpt>
      <trkpt lat="45.87646" lon="6.53796">
        <ele>1321</ele>
        <time>2018-03-08T13:04:23Z</time>
      </trkpt>
      <trkpt lat="45.87669" lon="6.53736">
        <ele>1318</ele>
        <time>2018-03-08T13:04:30Z</time>
      </trkpt>
      <trkpt lat="45.87701" lon="6.53687">
        <ele>1313</ele>
        <time>2018-03-08T13:04:38Z</time>
      </trkpt>
      <trkpt lat="45.87777" lon="6.5346">
        <ele>1296</ele>
        <time>2018-03-08T13:05:02Z</time>
      </trkpt>
      <trkpt lat="45.87823" lon="6.53354">
        <ele>1290</ele>
        <time>2018-03-08T13:05:16Z</time>
      </trkpt>
      <trkpt lat="45.8787" lon="6.53181">
        <ele>1282</ele>
        <time>2018-03-08T13:05:36Z</time>
      </trkpt>
      <trkpt lat="45.87873" lon="6.53152">
        <ele>1282</ele>
        <time>2018-03-08T13:05:39Z</time>
      </trkpt>
      <trkpt lat="45.87864" lon="6.53062">
        <ele>1278</ele>
        <time>2018-03-08T13:05:49Z</time>
      </trkpt>
      <trkpt lat="45.87866" lon="6.53043">
        <ele>1277</ele>
        <time>2018-03-08T13:05:51Z</time>
      </trkpt>
      <trkpt lat="45.87869" lon="6.52973">
        <ele>1271</ele>
        <time>2018-03-08T13:05:58Z</time>
      </trkpt>
      <trkpt lat="45.87861" lon="6.5294">
        <ele>1269</ele>
        <time>2018-03-08T13:06:01Z</time>
      </trkpt>
      <trkpt lat="45.87862" lon="6.52931">
        <ele>1268</ele>
        <time>2018-03-08T13:06:02Z</time>
      </trkpt>
      <trkpt lat="45.87864" lon="6.52924">
        <ele>1268</ele>
        <time>2018-03-08T13:06:03Z</time>
      </trkpt>
      <trkpt lat="45.87864" lon="6.52917">
        <ele>1267</ele>
        <time>2018-03-08T13:06:04Z</time>
      </trkpt>
      <trkpt lat="45.87868" lon="6.52911">
        <ele>1266</ele>
        <time>2018-03-08T13:06:05Z</time>
      </trkpt>
      <trkpt lat="45.87869" lon="6.52905">
        <ele>1265</ele>
        <time>2018-03-08T13:06:06Z</time>
      </trkpt>
      <trkpt lat="45.87869" lon="6.52898">
        <ele>1264</ele>
        <time>2018-03-08T13:06:07Z</time>
      </trkpt>
      <trkpt lat="45.87874" lon="6.52884">
        <ele>1262</ele>
        <time>2018-03-08T13:06:09Z</time>
      </trkpt>
      <trkpt lat="45.87873" lon="6.52876">
        <ele>1261</ele>
        <time>2018-03-08T13:06:10Z</time>
      </trkpt>
      <trkpt lat="45.87875" lon="6.52869">
        <ele>1259</ele>
        <time>2018-03-08T13:06:11Z</time>
      </trkpt>
      <trkpt lat="45.87876" lon="6.52861">
        <ele>1258</ele>
        <time>2018-03-08T13:06:12Z</time>
      </trkpt>
      <trkpt lat="45.87875" lon="6.52854">
        <ele>1257</ele>
        <time>2018-03-08T13:06:13Z</time>
      </trkpt>
      <trkpt lat="45.87877" lon="6.52847">
        <ele>1256</ele>
        <time>2018-03-08T13:06:14Z</time>
      </trkpt>
      <trkpt lat="45.87876" lon="6.5284">
        <ele>1255</ele>
        <time>2018-03-08T13:06:15Z</time>
      </trkpt>
      <trkpt lat="45.87873" lon="6.52834">
        <ele>1254</ele>
        <time>2018-03-08T13:06:16Z</time>
      </trkpt>
      <trkpt lat="45.87872" lon="6.52827">
        <ele>1253</ele>
        <time>2018-03-08T13:06:17Z</time>
      </trkpt>
      <trkpt lat="45.87871" lon="6.5282">
        <ele>1251</ele>
        <time>2018-03-08T13:06:18Z</time>
      </trkpt>
      <trkpt lat="45.87871" lon="6.52808">
        <ele>1249</ele>
        <time>2018-03-08T13:06:20Z</time>
      </trkpt>
      <trkpt lat="45.87867" lon="6.52797">
        <ele>1248</ele>
        <time>2018-03-08T13:06:22Z</time>
      </trkpt>
      <trkpt lat="45.87868" lon="6.52784">
        <ele>1246</ele>
        <time>2018-03-08T13:06:24Z</time>
      </trkpt>
      <trkpt lat="45.87863" lon="6.52775">
        <ele>1245</ele>
        <time>2018-03-08T13:06:26Z</time>
      </trkpt>
      <trkpt lat="45.87862" lon="6.52769">
        <ele>1244</ele>
        <time>2018-03-08T13:06:27Z</time>
      </trkpt>
      <trkpt lat="45.87852" lon="6.5275">
        <ele>1240</ele>
        <time>2018-03-08T13:06:31Z</time>
      </trkpt>
      <trkpt lat="45.87848" lon="6.5274">
        <ele>1239</ele>
        <time>2018-03-08T13:06:33Z</time>
      </trkpt>
      <trkpt lat="45.87848" lon="6.5273">
        <ele>1237</ele>
        <time>2018-03-08T13:06:35Z</time>
      </trkpt>
      <trkpt lat="45.87857" lon="6.52714">
        <ele>1234</ele>
        <time>2018-03-08T13:06:38Z</time>
      </trkpt>
      <trkpt lat="45.87859" lon="6.52704">
        <ele>1232</ele>
        <time>2018-03-08T13:06:39Z</time>
      </trkpt>
      <trkpt lat="45.87861" lon="6.52672">
        <ele>1228</ele>
        <time>2018-03-08T13:06:42Z</time>
      </trkpt>
      <trkpt lat="45.87874" lon="6.52638">
        <ele>1226</ele>
        <time>2018-03-08T13:06:46Z</time>
      </trkpt>
      <trkpt lat="45.87893" lon="6.52604">
        <ele>1224</ele>
        <time>2018-03-08T13:06:52Z</time>
      </trkpt>
      <trkpt lat="45.87897" lon="6.52598">
        <ele>1225</ele>
        <time>2018-03-08T13:07:06Z</time>
      </trkpt>
      <trkpt lat="45.87898" lon="6.52591">
        <ele>1226</ele>
        <time>2018-03-08T13:07:30Z</time>
      </trkpt>
      <trkpt lat="45.87904" lon="6.52585">
        <ele>1226</ele>
        <time>2018-03-08T13:07:45Z</time>
      </trkpt>
      <trkpt lat="45.87909" lon="6.52581">
        <ele>1226</ele>
        <time>2018-03-08T13:07:48Z</time>
      </trkpt>
      <trkpt lat="45.87923" lon="6.52572">
        <ele>1226</ele>
        <time>2018-03-08T13:08:48Z</time>
      </trkpt>
      <trkpt lat="45.87929" lon="6.52568">
        <ele>1226</ele>
        <time>2018-03-08T13:09:18Z</time>
      </trkpt>
      <trkpt lat="45.87933" lon="6.52565">
        <ele>1227</ele>
        <time>2018-03-08T13:09:24Z</time>
      </trkpt>
      <trkpt lat="45.87936" lon="6.52561">
        <ele>1227</ele>
        <time>2018-03-08T13:09:33Z</time>
      </trkpt>
      <trkpt lat="45.87955" lon="6.52555">
        <ele>1229</ele>
        <time>2018-03-08T13:09:57Z</time>
      </trkpt>
      <trkpt lat="45.87958" lon="6.52542">
        <ele>1229</ele>
        <time>2018-03-08T13:10:12Z</time>
      </trkpt>
      <trkpt lat="45.87957" lon="6.52535">
        <ele>1229</ele>
        <time>2018-03-08T13:10:19Z</time>
      </trkpt>
      <trkpt lat="45.87956" lon="6.52522">
        <ele>1230</ele>
        <time>2018-03-08T13:10:34Z</time>
      </trkpt>
      <trkpt lat="45.87953" lon="6.52508">
        <ele>1229</ele>
        <time>2018-03-08T13:10:47Z</time>
      </trkpt>
      <trkpt lat="45.87953" lon="6.52501">
        <ele>1229</ele>
        <time>2018-03-08T13:10:54Z</time>
      </trkpt>
      <trkpt lat="45.87958" lon="6.52487">
        <ele>1229</ele>
        <time>2018-03-08T13:11:40Z</time>
      </trkpt>
      <trkpt lat="45.87963" lon="6.52485">
        <ele>1229</ele>
        <time>2018-03-08T13:11:48Z</time>
      </trkpt>
      <trkpt lat="45.87977" lon="6.52481">
        <ele>1228</ele>
        <time>2018-03-08T13:12:06Z</time>
      </trkpt>
    </trkseg>
  </trk>
</gpx>